<?xml version="1.0" encoding="UTF-8" standalone="no" ?>
<gpx xmlns="http://www.topografix.com/GPX/1/1" xmlns:xsi="http://www.w3.org/2001/XMLSchema-instance" xsi:schemaLocation="http://www.topografix.com/GPX/1/1 http://www.topografix.com/GPX/1/1/gpx.xsd" version="1.1" creator="VisuGPX - https://www.visugpx.com">
  <metadata>
    <name>Signal de Bassia</name>
  </metadata>
  <trk>
    <name><![CDATA[Signal de Bassia]]></name>
    <trkseg>
      <trkpt lat="42.94471" lon="0.28822">
        <ele>1110</ele>
        <time>2021-12-07T16:19:33Z</time>
      </trkpt>
      <trkpt lat="42.94484" lon="0.28816">
        <ele>1110</ele>
        <time>2021-12-07T16:19:38Z</time>
      </trkpt>
      <trkpt lat="42.94521" lon="0.28841">
        <ele>1110</ele>
        <time>2021-12-07T16:19:43Z</time>
      </trkpt>
      <trkpt lat="42.94639" lon="0.28986">
        <ele>1120</ele>
        <time>2021-12-07T16:19:48Z</time>
      </trkpt>
      <trkpt lat="42.94681" lon="0.29048">
        <ele>1124</ele>
        <time>2021-12-07T16:19:53Z</time>
      </trkpt>
      <trkpt lat="42.94712" lon="0.29102">
        <ele>1135</ele>
        <time>2021-12-07T16:19:58Z</time>
      </trkpt>
      <trkpt lat="42.94754" lon="0.291">
        <ele>1131</ele>
        <time>2021-12-07T16:20:03Z</time>
      </trkpt>
      <trkpt lat="42.94792" lon="0.29092">
        <ele>1131</ele>
        <time>2021-12-07T16:20:08Z</time>
      </trkpt>
      <trkpt lat="42.94831" lon="0.29112">
        <ele>1133</ele>
        <time>2021-12-07T16:20:13Z</time>
      </trkpt>
      <trkpt lat="42.9484" lon="0.29197">
        <ele>1140</ele>
        <time>2021-12-07T16:20:18Z</time>
      </trkpt>
      <trkpt lat="42.94846" lon="0.29261">
        <ele>1146</ele>
        <time>2021-12-07T16:20:23Z</time>
      </trkpt>
      <trkpt lat="42.94868" lon="0.29325">
        <ele>1154</ele>
        <time>2021-12-07T16:20:28Z</time>
      </trkpt>
      <trkpt lat="42.94943" lon="0.29343">
        <ele>1154</ele>
        <time>2021-12-07T16:20:33Z</time>
      </trkpt>
      <trkpt lat="42.94982" lon="0.2939">
        <ele>1160</ele>
        <time>2021-12-07T16:20:38Z</time>
      </trkpt>
      <trkpt lat="42.95027" lon="0.29397">
        <ele>1162</ele>
        <time>2021-12-07T16:20:43Z</time>
      </trkpt>
      <trkpt lat="42.95153" lon="0.29461">
        <ele>1171</ele>
        <time>2021-12-07T16:20:48Z</time>
      </trkpt>
      <trkpt lat="42.9517" lon="0.29516">
        <ele>1171</ele>
        <time>2021-12-07T16:20:53Z</time>
      </trkpt>
      <trkpt lat="42.95169" lon="0.29532">
        <ele>1172</ele>
        <time>2021-12-07T08:04:38Z</time>
      </trkpt>
      <trkpt lat="42.95184" lon="0.29526">
        <ele>1172</ele>
        <time>2021-12-07T08:04:52Z</time>
      </trkpt>
      <trkpt lat="42.95198" lon="0.29522">
        <ele>1173</ele>
        <time>2021-12-07T08:05:04Z</time>
      </trkpt>
      <trkpt lat="42.95212" lon="0.29521">
        <ele>1174</ele>
        <time>2021-12-07T08:05:17Z</time>
      </trkpt>
      <trkpt lat="42.95228" lon="0.29517">
        <ele>1176</ele>
        <time>2021-12-07T08:05:34Z</time>
      </trkpt>
      <trkpt lat="42.95239" lon="0.29518">
        <ele>1177</ele>
        <time>2021-12-07T08:05:45Z</time>
      </trkpt>
      <trkpt lat="42.9525" lon="0.29518">
        <ele>1179</ele>
        <time>2021-12-07T08:05:57Z</time>
      </trkpt>
      <trkpt lat="42.95266" lon="0.29518">
        <ele>1180</ele>
        <time>2021-12-07T08:06:13Z</time>
      </trkpt>
      <trkpt lat="42.95284" lon="0.29519">
        <ele>1182</ele>
        <time>2021-12-07T08:06:31Z</time>
      </trkpt>
      <trkpt lat="42.953" lon="0.29518">
        <ele>1185</ele>
        <time>2021-12-07T08:06:47Z</time>
      </trkpt>
      <trkpt lat="42.95321" lon="0.2952">
        <ele>1192</ele>
        <time>2021-12-07T08:07:07Z</time>
      </trkpt>
      <trkpt lat="42.95339" lon="0.29506">
        <ele>1194</ele>
        <time>2021-12-07T08:07:23Z</time>
      </trkpt>
      <trkpt lat="42.95355" lon="0.29499">
        <ele>1197</ele>
        <time>2021-12-07T08:07:44Z</time>
      </trkpt>
      <trkpt lat="42.95369" lon="0.29491">
        <ele>1199</ele>
        <time>2021-12-07T08:07:58Z</time>
      </trkpt>
      <trkpt lat="42.95382" lon="0.29478">
        <ele>1198</ele>
        <time>2021-12-07T08:08:14Z</time>
      </trkpt>
      <trkpt lat="42.95392" lon="0.29468">
        <ele>1198</ele>
        <time>2021-12-07T08:08:29Z</time>
      </trkpt>
      <trkpt lat="42.95403" lon="0.29462">
        <ele>1198</ele>
        <time>2021-12-07T08:08:44Z</time>
      </trkpt>
      <trkpt lat="42.95414" lon="0.29462">
        <ele>1199</ele>
        <time>2021-12-07T08:09:02Z</time>
      </trkpt>
      <trkpt lat="42.9542" lon="0.29466">
        <ele>1199</ele>
        <time>2021-12-07T08:09:14Z</time>
      </trkpt>
      <trkpt lat="42.95426" lon="0.29472">
        <ele>1200</ele>
        <time>2021-12-07T08:09:26Z</time>
      </trkpt>
      <trkpt lat="42.95437" lon="0.29486">
        <ele>1201</ele>
        <time>2021-12-07T08:09:41Z</time>
      </trkpt>
      <trkpt lat="42.95448" lon="0.29501">
        <ele>1202</ele>
        <time>2021-12-07T08:09:57Z</time>
      </trkpt>
      <trkpt lat="42.95458" lon="0.29516">
        <ele>1207</ele>
        <time>2021-12-07T08:10:13Z</time>
      </trkpt>
      <trkpt lat="42.95473" lon="0.29534">
        <ele>1208</ele>
        <time>2021-12-07T08:10:27Z</time>
      </trkpt>
      <trkpt lat="42.95483" lon="0.29549">
        <ele>1210</ele>
        <time>2021-12-07T08:10:41Z</time>
      </trkpt>
      <trkpt lat="42.95489" lon="0.2957">
        <ele>1211</ele>
        <time>2021-12-07T08:10:55Z</time>
      </trkpt>
      <trkpt lat="42.95493" lon="0.2959">
        <ele>1212</ele>
        <time>2021-12-07T08:11:09Z</time>
      </trkpt>
      <trkpt lat="42.95499" lon="0.29613">
        <ele>1213</ele>
        <time>2021-12-07T08:11:22Z</time>
      </trkpt>
      <trkpt lat="42.95501" lon="0.29617">
        <ele>1214</ele>
        <time>2021-12-07T08:11:26Z</time>
      </trkpt>
      <trkpt lat="42.95503" lon="0.29623">
        <ele>1215</ele>
        <time>2021-12-07T08:11:29Z</time>
      </trkpt>
      <trkpt lat="42.95502" lon="0.29637">
        <ele>1215</ele>
        <time>2021-12-07T08:11:43Z</time>
      </trkpt>
      <trkpt lat="42.95498" lon="0.29651">
        <ele>1215</ele>
        <time>2021-12-07T08:11:59Z</time>
      </trkpt>
      <trkpt lat="42.95498" lon="0.29658">
        <ele>1216</ele>
        <time>2021-12-07T08:12:07Z</time>
      </trkpt>
      <trkpt lat="42.95499" lon="0.29676">
        <ele>1217</ele>
        <time>2021-12-07T08:12:23Z</time>
      </trkpt>
      <trkpt lat="42.95514" lon="0.29716">
        <ele>1221</ele>
        <time>2021-12-07T08:12:39Z</time>
      </trkpt>
      <trkpt lat="42.95519" lon="0.29728">
        <ele>1224</ele>
        <time>2021-12-07T08:12:54Z</time>
      </trkpt>
      <trkpt lat="42.95518" lon="0.29747">
        <ele>1231</ele>
        <time>2021-12-07T08:13:13Z</time>
      </trkpt>
      <trkpt lat="42.95516" lon="0.29754">
        <ele>1234</ele>
        <time>2021-12-07T08:13:20Z</time>
      </trkpt>
      <trkpt lat="42.95513" lon="0.29768">
        <ele>1239</ele>
        <time>2021-12-07T08:13:35Z</time>
      </trkpt>
      <trkpt lat="42.95504" lon="0.29778">
        <ele>1241</ele>
        <time>2021-12-07T08:13:51Z</time>
      </trkpt>
      <trkpt lat="42.95502" lon="0.29791">
        <ele>1245</ele>
        <time>2021-12-07T08:14:02Z</time>
      </trkpt>
      <trkpt lat="42.95498" lon="0.29817">
        <ele>1251</ele>
        <time>2021-12-07T08:14:22Z</time>
      </trkpt>
      <trkpt lat="42.95502" lon="0.29848">
        <ele>1258</ele>
        <time>2021-12-07T08:14:39Z</time>
      </trkpt>
      <trkpt lat="42.95497" lon="0.29865">
        <ele>1260</ele>
        <time>2021-12-07T08:14:56Z</time>
      </trkpt>
      <trkpt lat="42.95506" lon="0.29866">
        <ele>1262</ele>
        <time>2021-12-07T08:15:09Z</time>
      </trkpt>
      <trkpt lat="42.95518" lon="0.29854">
        <ele>1263</ele>
        <time>2021-12-07T08:15:23Z</time>
      </trkpt>
      <trkpt lat="42.95527" lon="0.29845">
        <ele>1264</ele>
        <time>2021-12-07T08:15:38Z</time>
      </trkpt>
      <trkpt lat="42.95536" lon="0.29836">
        <ele>1263</ele>
        <time>2021-12-07T08:15:53Z</time>
      </trkpt>
      <trkpt lat="42.95546" lon="0.2983">
        <ele>1263</ele>
        <time>2021-12-07T08:16:09Z</time>
      </trkpt>
      <trkpt lat="42.95555" lon="0.29826">
        <ele>1263</ele>
        <time>2021-12-07T08:16:24Z</time>
      </trkpt>
      <trkpt lat="42.95565" lon="0.29818">
        <ele>1262</ele>
        <time>2021-12-07T08:16:39Z</time>
      </trkpt>
      <trkpt lat="42.95578" lon="0.2982">
        <ele>1262</ele>
        <time>2021-12-07T08:16:55Z</time>
      </trkpt>
      <trkpt lat="42.95588" lon="0.29823">
        <ele>1262</ele>
        <time>2021-12-07T08:17:11Z</time>
      </trkpt>
      <trkpt lat="42.95591" lon="0.29823">
        <ele>1262</ele>
        <time>2021-12-07T08:17:15Z</time>
      </trkpt>
      <trkpt lat="42.95598" lon="0.29829">
        <ele>1264</ele>
        <time>2021-12-07T08:17:29Z</time>
      </trkpt>
      <trkpt lat="42.95606" lon="0.29831">
        <ele>1264</ele>
        <time>2021-12-07T08:17:44Z</time>
      </trkpt>
      <trkpt lat="42.95622" lon="0.29836">
        <ele>1266</ele>
        <time>2021-12-07T08:18:02Z</time>
      </trkpt>
      <trkpt lat="42.95634" lon="0.2984">
        <ele>1267</ele>
        <time>2021-12-07T08:18:15Z</time>
      </trkpt>
      <trkpt lat="42.95646" lon="0.29844">
        <ele>1268</ele>
        <time>2021-12-07T08:18:31Z</time>
      </trkpt>
      <trkpt lat="42.95657" lon="0.29846">
        <ele>1269</ele>
        <time>2021-12-07T08:18:46Z</time>
      </trkpt>
      <trkpt lat="42.95669" lon="0.29851">
        <ele>1271</ele>
        <time>2021-12-07T08:19:02Z</time>
      </trkpt>
      <trkpt lat="42.95673" lon="0.29852">
        <ele>1271</ele>
        <time>2021-12-07T08:19:15Z</time>
      </trkpt>
      <trkpt lat="42.95686" lon="0.29857">
        <ele>1272</ele>
        <time>2021-12-07T08:19:31Z</time>
      </trkpt>
      <trkpt lat="42.95698" lon="0.29863">
        <ele>1274</ele>
        <time>2021-12-07T08:19:48Z</time>
      </trkpt>
      <trkpt lat="42.9571" lon="0.29869">
        <ele>1275</ele>
        <time>2021-12-07T08:20:02Z</time>
      </trkpt>
      <trkpt lat="42.95721" lon="0.29879">
        <ele>1278</ele>
        <time>2021-12-07T08:20:18Z</time>
      </trkpt>
      <trkpt lat="42.95733" lon="0.29884">
        <ele>1279</ele>
        <time>2021-12-07T08:20:35Z</time>
      </trkpt>
      <trkpt lat="42.95744" lon="0.2989">
        <ele>1280</ele>
        <time>2021-12-07T08:20:50Z</time>
      </trkpt>
      <trkpt lat="42.95752" lon="0.29896">
        <ele>1282</ele>
        <time>2021-12-07T08:21:03Z</time>
      </trkpt>
      <trkpt lat="42.95764" lon="0.29904">
        <ele>1285</ele>
        <time>2021-12-07T08:21:18Z</time>
      </trkpt>
      <trkpt lat="42.95774" lon="0.29909">
        <ele>1287</ele>
        <time>2021-12-07T08:21:34Z</time>
      </trkpt>
      <trkpt lat="42.95787" lon="0.29916">
        <ele>1289</ele>
        <time>2021-12-07T08:21:50Z</time>
      </trkpt>
      <trkpt lat="42.95797" lon="0.29924">
        <ele>1292</ele>
        <time>2021-12-07T08:22:02Z</time>
      </trkpt>
      <trkpt lat="42.95808" lon="0.29928">
        <ele>1294</ele>
        <time>2021-12-07T08:22:17Z</time>
      </trkpt>
      <trkpt lat="42.95819" lon="0.29939">
        <ele>1297</ele>
        <time>2021-12-07T08:22:32Z</time>
      </trkpt>
      <trkpt lat="42.95829" lon="0.29944">
        <ele>1299</ele>
        <time>2021-12-07T08:22:46Z</time>
      </trkpt>
      <trkpt lat="42.95839" lon="0.2995">
        <ele>1301</ele>
        <time>2021-12-07T08:22:58Z</time>
      </trkpt>
      <trkpt lat="42.95851" lon="0.2996">
        <ele>1303</ele>
        <time>2021-12-07T08:23:13Z</time>
      </trkpt>
      <trkpt lat="42.95864" lon="0.29964">
        <ele>1304</ele>
        <time>2021-12-07T08:23:27Z</time>
      </trkpt>
      <trkpt lat="42.95876" lon="0.29973">
        <ele>1307</ele>
        <time>2021-12-07T08:23:40Z</time>
      </trkpt>
      <trkpt lat="42.9589" lon="0.29983">
        <ele>1312</ele>
        <time>2021-12-07T08:23:57Z</time>
      </trkpt>
      <trkpt lat="42.95899" lon="0.29988">
        <ele>1314</ele>
        <time>2021-12-07T08:24:09Z</time>
      </trkpt>
      <trkpt lat="42.95911" lon="0.3">
        <ele>1318</ele>
        <time>2021-12-07T08:24:25Z</time>
      </trkpt>
      <trkpt lat="42.9592" lon="0.30003">
        <ele>1319</ele>
        <time>2021-12-07T08:24:38Z</time>
      </trkpt>
      <trkpt lat="42.9595" lon="0.30029">
        <ele>1323</ele>
        <time>2021-12-07T08:24:53Z</time>
      </trkpt>
      <trkpt lat="42.95965" lon="0.30046">
        <ele>1326</ele>
        <time>2021-12-07T08:25:09Z</time>
      </trkpt>
      <trkpt lat="42.95988" lon="0.30054">
        <ele>1325</ele>
        <time>2021-12-07T08:25:25Z</time>
      </trkpt>
      <trkpt lat="42.96" lon="0.30066">
        <ele>1327</ele>
        <time>2021-12-07T08:25:39Z</time>
      </trkpt>
      <trkpt lat="42.9601" lon="0.30074">
        <ele>1329</ele>
        <time>2021-12-07T08:25:53Z</time>
      </trkpt>
      <trkpt lat="42.96018" lon="0.3008">
        <ele>1330</ele>
        <time>2021-12-07T08:26:08Z</time>
      </trkpt>
      <trkpt lat="42.96018" lon="0.30081">
        <ele>1330</ele>
        <time>2021-12-07T08:26:09Z</time>
      </trkpt>
      <trkpt lat="42.96023" lon="0.30083">
        <ele>1330</ele>
        <time>2021-12-07T08:26:27Z</time>
      </trkpt>
      <trkpt lat="42.96033" lon="0.30097">
        <ele>1333</ele>
        <time>2021-12-07T08:26:47Z</time>
      </trkpt>
      <trkpt lat="42.96043" lon="0.30115">
        <ele>1337</ele>
        <time>2021-12-07T08:27:04Z</time>
      </trkpt>
      <trkpt lat="42.9606" lon="0.30128">
        <ele>1342</ele>
        <time>2021-12-07T08:27:24Z</time>
      </trkpt>
      <trkpt lat="42.96072" lon="0.30142">
        <ele>1346</ele>
        <time>2021-12-07T08:27:39Z</time>
      </trkpt>
      <trkpt lat="42.96084" lon="0.30149">
        <ele>1348</ele>
        <time>2021-12-07T08:27:55Z</time>
      </trkpt>
      <trkpt lat="42.96094" lon="0.30155">
        <ele>1351</ele>
        <time>2021-12-07T08:28:11Z</time>
      </trkpt>
      <trkpt lat="42.96108" lon="0.30155">
        <ele>1353</ele>
        <time>2021-12-07T08:28:26Z</time>
      </trkpt>
      <trkpt lat="42.96116" lon="0.30154">
        <ele>1356</ele>
        <time>2021-12-07T08:28:41Z</time>
      </trkpt>
      <trkpt lat="42.96129" lon="0.30165">
        <ele>1360</ele>
        <time>2021-12-07T08:28:56Z</time>
      </trkpt>
      <trkpt lat="42.96143" lon="0.30184">
        <ele>1363</ele>
        <time>2021-12-07T08:29:10Z</time>
      </trkpt>
      <trkpt lat="42.96146" lon="0.30189">
        <ele>1364</ele>
        <time>2021-12-07T08:29:17Z</time>
      </trkpt>
      <trkpt lat="42.9615" lon="0.30197">
        <ele>1365</ele>
        <time>2021-12-07T08:29:26Z</time>
      </trkpt>
      <trkpt lat="42.96162" lon="0.30212">
        <ele>1368</ele>
        <time>2021-12-07T08:29:42Z</time>
      </trkpt>
      <trkpt lat="42.96167" lon="0.30226">
        <ele>1369</ele>
        <time>2021-12-07T08:29:57Z</time>
      </trkpt>
      <trkpt lat="42.96178" lon="0.30239">
        <ele>1372</ele>
        <time>2021-12-07T08:30:13Z</time>
      </trkpt>
      <trkpt lat="42.96183" lon="0.3025">
        <ele>1372</ele>
        <time>2021-12-07T08:30:29Z</time>
      </trkpt>
      <trkpt lat="42.9619" lon="0.30261">
        <ele>1373</ele>
        <time>2021-12-07T08:30:45Z</time>
      </trkpt>
      <trkpt lat="42.96196" lon="0.30267">
        <ele>1373</ele>
        <time>2021-12-07T08:30:53Z</time>
      </trkpt>
      <trkpt lat="42.96202" lon="0.30278">
        <ele>1374</ele>
        <time>2021-12-07T08:31:07Z</time>
      </trkpt>
      <trkpt lat="42.96206" lon="0.30282">
        <ele>1375</ele>
        <time>2021-12-07T08:31:12Z</time>
      </trkpt>
      <trkpt lat="42.96221" lon="0.30289">
        <ele>1378</ele>
        <time>2021-12-07T08:31:29Z</time>
      </trkpt>
      <trkpt lat="42.96234" lon="0.30293">
        <ele>1378</ele>
        <time>2021-12-07T08:31:44Z</time>
      </trkpt>
      <trkpt lat="42.9625" lon="0.30295">
        <ele>1378</ele>
        <time>2021-12-07T08:32:01Z</time>
      </trkpt>
      <trkpt lat="42.96268" lon="0.30291">
        <ele>1378</ele>
        <time>2021-12-07T08:32:18Z</time>
      </trkpt>
      <trkpt lat="42.96269" lon="0.30291">
        <ele>1378</ele>
        <time>2021-12-07T08:32:20Z</time>
      </trkpt>
      <trkpt lat="42.96278" lon="0.30286">
        <ele>1378</ele>
        <time>2021-12-07T08:32:30Z</time>
      </trkpt>
      <trkpt lat="42.96282" lon="0.30284">
        <ele>1378</ele>
        <time>2021-12-07T08:32:33Z</time>
      </trkpt>
      <trkpt lat="42.96297" lon="0.30279">
        <ele>1378</ele>
        <time>2021-12-07T08:32:47Z</time>
      </trkpt>
      <trkpt lat="42.963" lon="0.3028">
        <ele>1378</ele>
        <time>2021-12-07T08:32:51Z</time>
      </trkpt>
      <trkpt lat="42.96314" lon="0.30277">
        <ele>1379</ele>
        <time>2021-12-07T08:33:03Z</time>
      </trkpt>
      <trkpt lat="42.96331" lon="0.30276">
        <ele>1380</ele>
        <time>2021-12-07T08:33:17Z</time>
      </trkpt>
      <trkpt lat="42.96341" lon="0.30269">
        <ele>1380</ele>
        <time>2021-12-07T08:33:28Z</time>
      </trkpt>
      <trkpt lat="42.96342" lon="0.30268">
        <ele>1380</ele>
        <time>2021-12-07T08:33:30Z</time>
      </trkpt>
      <trkpt lat="42.96346" lon="0.30266">
        <ele>1380</ele>
        <time>2021-12-07T08:33:34Z</time>
      </trkpt>
      <trkpt lat="42.96355" lon="0.30262">
        <ele>1380</ele>
        <time>2021-12-07T08:33:43Z</time>
      </trkpt>
      <trkpt lat="42.96361" lon="0.3026">
        <ele>1380</ele>
        <time>2021-12-07T08:33:47Z</time>
      </trkpt>
      <trkpt lat="42.96377" lon="0.30265">
        <ele>1382</ele>
        <time>2021-12-07T08:34:03Z</time>
      </trkpt>
      <trkpt lat="42.96387" lon="0.3028">
        <ele>1383</ele>
        <time>2021-12-07T08:34:16Z</time>
      </trkpt>
      <trkpt lat="42.96389" lon="0.30281">
        <ele>1383</ele>
        <time>2021-12-07T08:34:17Z</time>
      </trkpt>
      <trkpt lat="42.96399" lon="0.30293">
        <ele>1385</ele>
        <time>2021-12-07T08:34:32Z</time>
      </trkpt>
      <trkpt lat="42.964" lon="0.30295">
        <ele>1385</ele>
        <time>2021-12-07T08:34:34Z</time>
      </trkpt>
      <trkpt lat="42.96406" lon="0.30303">
        <ele>1385</ele>
        <time>2021-12-07T08:34:46Z</time>
      </trkpt>
      <trkpt lat="42.96406" lon="0.30292">
        <ele>1385</ele>
        <time>2021-12-07T08:34:58Z</time>
      </trkpt>
      <trkpt lat="42.96407" lon="0.3027">
        <ele>1386</ele>
        <time>2021-12-07T08:35:14Z</time>
      </trkpt>
      <trkpt lat="42.964" lon="0.30263">
        <ele>1385</ele>
        <time>2021-12-07T08:35:22Z</time>
      </trkpt>
      <trkpt lat="42.96393" lon="0.30265">
        <ele>1384</ele>
        <time>2021-12-07T08:35:36Z</time>
      </trkpt>
      <trkpt lat="42.96394" lon="0.30265">
        <ele>1384</ele>
        <time>2021-12-07T08:35:56Z</time>
      </trkpt>
      <trkpt lat="42.96396" lon="0.30262">
        <ele>1384</ele>
        <time>2021-12-07T08:36:10Z</time>
      </trkpt>
      <trkpt lat="42.96395" lon="0.30264">
        <ele>1384</ele>
        <time>2021-12-07T08:36:33Z</time>
      </trkpt>
      <trkpt lat="42.96396" lon="0.30257">
        <ele>1385</ele>
        <time>2021-12-07T08:36:46Z</time>
      </trkpt>
      <trkpt lat="42.96399" lon="0.30255">
        <ele>1385</ele>
        <time>2021-12-07T08:36:59Z</time>
      </trkpt>
      <trkpt lat="42.964" lon="0.30258">
        <ele>1385</ele>
        <time>2021-12-07T08:37:04Z</time>
      </trkpt>
      <trkpt lat="42.96402" lon="0.30257">
        <ele>1386</ele>
        <time>2021-12-07T08:37:13Z</time>
      </trkpt>
      <trkpt lat="42.96401" lon="0.30256">
        <ele>1385</ele>
        <time>2021-12-07T08:37:44Z</time>
      </trkpt>
      <trkpt lat="42.96401" lon="0.30253">
        <ele>1386</ele>
        <time>2021-12-07T08:38:05Z</time>
      </trkpt>
      <trkpt lat="42.96395" lon="0.30244">
        <ele>1385</ele>
        <time>2021-12-07T08:38:39Z</time>
      </trkpt>
      <trkpt lat="42.96395" lon="0.30245">
        <ele>1385</ele>
        <time>2021-12-07T08:39:13Z</time>
      </trkpt>
      <trkpt lat="42.96394" lon="0.30244">
        <ele>1384</ele>
        <time>2021-12-07T08:39:25Z</time>
      </trkpt>
      <trkpt lat="42.96394" lon="0.30244">
        <ele>1384</ele>
        <time>2021-12-07T08:39:37Z</time>
      </trkpt>
      <trkpt lat="42.96395" lon="0.30242">
        <ele>1385</ele>
        <time>2021-12-07T08:39:55Z</time>
      </trkpt>
      <trkpt lat="42.96397" lon="0.3024">
        <ele>1386</ele>
        <time>2021-12-07T08:40:14Z</time>
      </trkpt>
      <trkpt lat="42.96397" lon="0.30237">
        <ele>1386</ele>
        <time>2021-12-07T08:40:33Z</time>
      </trkpt>
      <trkpt lat="42.96397" lon="0.30235">
        <ele>1386</ele>
        <time>2021-12-07T08:40:50Z</time>
      </trkpt>
      <trkpt lat="42.96398" lon="0.3024">
        <ele>1386</ele>
        <time>2021-12-07T08:41:06Z</time>
      </trkpt>
      <trkpt lat="42.96404" lon="0.30234">
        <ele>1388</ele>
        <time>2021-12-07T08:41:18Z</time>
      </trkpt>
      <trkpt lat="42.96408" lon="0.30232">
        <ele>1389</ele>
        <time>2021-12-07T08:41:26Z</time>
      </trkpt>
      <trkpt lat="42.96413" lon="0.3022">
        <ele>1391</ele>
        <time>2021-12-07T08:41:40Z</time>
      </trkpt>
      <trkpt lat="42.96413" lon="0.30207">
        <ele>1393</ele>
        <time>2021-12-07T08:41:55Z</time>
      </trkpt>
      <trkpt lat="42.96415" lon="0.30205">
        <ele>1394</ele>
        <time>2021-12-07T08:42:07Z</time>
      </trkpt>
      <trkpt lat="42.96414" lon="0.30194">
        <ele>1394</ele>
        <time>2021-12-07T08:42:20Z</time>
      </trkpt>
      <trkpt lat="42.96414" lon="0.30183">
        <ele>1396</ele>
        <time>2021-12-07T08:42:34Z</time>
      </trkpt>
      <trkpt lat="42.96418" lon="0.30173">
        <ele>1398</ele>
        <time>2021-12-07T08:42:47Z</time>
      </trkpt>
      <trkpt lat="42.96425" lon="0.30173">
        <ele>1400</ele>
        <time>2021-12-07T08:43:01Z</time>
      </trkpt>
      <trkpt lat="42.96423" lon="0.30173">
        <ele>1400</ele>
        <time>2021-12-07T08:43:15Z</time>
      </trkpt>
      <trkpt lat="42.9642" lon="0.30157">
        <ele>1401</ele>
        <time>2021-12-07T08:43:29Z</time>
      </trkpt>
      <trkpt lat="42.96418" lon="0.30138">
        <ele>1402</ele>
        <time>2021-12-07T08:43:50Z</time>
      </trkpt>
      <trkpt lat="42.96416" lon="0.30119">
        <ele>1403</ele>
        <time>2021-12-07T08:44:08Z</time>
      </trkpt>
      <trkpt lat="42.96414" lon="0.30095">
        <ele>1405</ele>
        <time>2021-12-07T08:44:26Z</time>
      </trkpt>
      <trkpt lat="42.96411" lon="0.30084">
        <ele>1405</ele>
        <time>2021-12-07T08:44:34Z</time>
      </trkpt>
      <trkpt lat="42.96411" lon="0.30063">
        <ele>1406</ele>
        <time>2021-12-07T08:44:44Z</time>
      </trkpt>
      <trkpt lat="42.96415" lon="0.30053">
        <ele>1408</ele>
        <time>2021-12-07T08:44:58Z</time>
      </trkpt>
      <trkpt lat="42.96413" lon="0.30038">
        <ele>1409</ele>
        <time>2021-12-07T08:45:15Z</time>
      </trkpt>
      <trkpt lat="42.96407" lon="0.30023">
        <ele>1409</ele>
        <time>2021-12-07T08:45:31Z</time>
      </trkpt>
      <trkpt lat="42.96405" lon="0.30008">
        <ele>1410</ele>
        <time>2021-12-07T08:45:46Z</time>
      </trkpt>
      <trkpt lat="42.964" lon="0.29994">
        <ele>1410</ele>
        <time>2021-12-07T08:46:01Z</time>
      </trkpt>
      <trkpt lat="42.96392" lon="0.29975">
        <ele>1408</ele>
        <time>2021-12-07T08:46:20Z</time>
      </trkpt>
      <trkpt lat="42.96389" lon="0.29953">
        <ele>1408</ele>
        <time>2021-12-07T08:46:39Z</time>
      </trkpt>
      <trkpt lat="42.96386" lon="0.29934">
        <ele>1409</ele>
        <time>2021-12-07T08:46:52Z</time>
      </trkpt>
      <trkpt lat="42.96382" lon="0.29909">
        <ele>1410</ele>
        <time>2021-12-07T08:47:06Z</time>
      </trkpt>
      <trkpt lat="42.96385" lon="0.29892">
        <ele>1412</ele>
        <time>2021-12-07T08:47:22Z</time>
      </trkpt>
      <trkpt lat="42.96385" lon="0.29884">
        <ele>1413</ele>
        <time>2021-12-07T08:47:28Z</time>
      </trkpt>
      <trkpt lat="42.96387" lon="0.29869">
        <ele>1415</ele>
        <time>2021-12-07T08:47:40Z</time>
      </trkpt>
      <trkpt lat="42.96387" lon="0.29853">
        <ele>1417</ele>
        <time>2021-12-07T08:47:54Z</time>
      </trkpt>
      <trkpt lat="42.96388" lon="0.29846">
        <ele>1418</ele>
        <time>2021-12-07T08:48:07Z</time>
      </trkpt>
      <trkpt lat="42.96391" lon="0.29828">
        <ele>1420</ele>
        <time>2021-12-07T08:48:21Z</time>
      </trkpt>
      <trkpt lat="42.96395" lon="0.29806">
        <ele>1422</ele>
        <time>2021-12-07T08:48:38Z</time>
      </trkpt>
      <trkpt lat="42.96398" lon="0.29793">
        <ele>1423</ele>
        <time>2021-12-07T08:48:51Z</time>
      </trkpt>
      <trkpt lat="42.96399" lon="0.29783">
        <ele>1424</ele>
        <time>2021-12-07T08:48:59Z</time>
      </trkpt>
      <trkpt lat="42.96399" lon="0.29771">
        <ele>1424</ele>
        <time>2021-12-07T08:49:06Z</time>
      </trkpt>
      <trkpt lat="42.964" lon="0.29759">
        <ele>1424</ele>
        <time>2021-12-07T08:49:17Z</time>
      </trkpt>
      <trkpt lat="42.96402" lon="0.29751">
        <ele>1424</ele>
        <time>2021-12-07T08:49:23Z</time>
      </trkpt>
      <trkpt lat="42.96405" lon="0.29741">
        <ele>1424</ele>
        <time>2021-12-07T08:49:37Z</time>
      </trkpt>
      <trkpt lat="42.96411" lon="0.29729">
        <ele>1426</ele>
        <time>2021-12-07T08:49:52Z</time>
      </trkpt>
      <trkpt lat="42.96418" lon="0.29723">
        <ele>1428</ele>
        <time>2021-12-07T08:50:08Z</time>
      </trkpt>
      <trkpt lat="42.9643" lon="0.29722">
        <ele>1432</ele>
        <time>2021-12-07T08:50:25Z</time>
      </trkpt>
      <trkpt lat="42.96437" lon="0.29715">
        <ele>1434</ele>
        <time>2021-12-07T08:50:42Z</time>
      </trkpt>
      <trkpt lat="42.96443" lon="0.29723">
        <ele>1437</ele>
        <time>2021-12-07T08:50:52Z</time>
      </trkpt>
      <trkpt lat="42.96445" lon="0.29727">
        <ele>1439</ele>
        <time>2021-12-07T08:50:57Z</time>
      </trkpt>
      <trkpt lat="42.96449" lon="0.29738">
        <ele>1441</ele>
        <time>2021-12-07T08:51:12Z</time>
      </trkpt>
      <trkpt lat="42.96455" lon="0.2975">
        <ele>1444</ele>
        <time>2021-12-07T08:51:29Z</time>
      </trkpt>
      <trkpt lat="42.96457" lon="0.29754">
        <ele>1444</ele>
        <time>2021-12-07T08:51:44Z</time>
      </trkpt>
      <trkpt lat="42.96462" lon="0.2976">
        <ele>1447</ele>
        <time>2021-12-07T08:51:57Z</time>
      </trkpt>
      <trkpt lat="42.96466" lon="0.2975">
        <ele>1448</ele>
        <time>2021-12-07T08:52:13Z</time>
      </trkpt>
      <trkpt lat="42.96474" lon="0.29738">
        <ele>1450</ele>
        <time>2021-12-07T08:52:30Z</time>
      </trkpt>
      <trkpt lat="42.96481" lon="0.2973">
        <ele>1453</ele>
        <time>2021-12-07T08:52:48Z</time>
      </trkpt>
      <trkpt lat="42.96488" lon="0.29722">
        <ele>1455</ele>
        <time>2021-12-07T08:53:05Z</time>
      </trkpt>
      <trkpt lat="42.96496" lon="0.29723">
        <ele>1458</ele>
        <time>2021-12-07T08:53:23Z</time>
      </trkpt>
      <trkpt lat="42.96503" lon="0.2974">
        <ele>1462</ele>
        <time>2021-12-07T08:53:43Z</time>
      </trkpt>
      <trkpt lat="42.96501" lon="0.29748">
        <ele>1462</ele>
        <time>2021-12-07T08:53:57Z</time>
      </trkpt>
      <trkpt lat="42.96508" lon="0.29752">
        <ele>1465</ele>
        <time>2021-12-07T08:54:11Z</time>
      </trkpt>
      <trkpt lat="42.96513" lon="0.2974">
        <ele>1466</ele>
        <time>2021-12-07T08:54:25Z</time>
      </trkpt>
      <trkpt lat="42.9652" lon="0.29728">
        <ele>1468</ele>
        <time>2021-12-07T08:54:42Z</time>
      </trkpt>
      <trkpt lat="42.96527" lon="0.29719">
        <ele>1469</ele>
        <time>2021-12-07T08:54:59Z</time>
      </trkpt>
      <trkpt lat="42.96536" lon="0.2971">
        <ele>1472</ele>
        <time>2021-12-07T08:55:13Z</time>
      </trkpt>
      <trkpt lat="42.9654" lon="0.29704">
        <ele>1473</ele>
        <time>2021-12-07T08:55:26Z</time>
      </trkpt>
      <trkpt lat="42.9655" lon="0.29704">
        <ele>1477</ele>
        <time>2021-12-07T08:55:43Z</time>
      </trkpt>
      <trkpt lat="42.96559" lon="0.29698">
        <ele>1480</ele>
        <time>2021-12-07T08:56:03Z</time>
      </trkpt>
      <trkpt lat="42.96563" lon="0.2971">
        <ele>1483</ele>
        <time>2021-12-07T08:56:17Z</time>
      </trkpt>
      <trkpt lat="42.96564" lon="0.29724">
        <ele>1485</ele>
        <time>2021-12-07T08:56:33Z</time>
      </trkpt>
      <trkpt lat="42.96566" lon="0.29739">
        <ele>1489</ele>
        <time>2021-12-07T08:56:52Z</time>
      </trkpt>
      <trkpt lat="42.96567" lon="0.29746">
        <ele>1490</ele>
        <time>2021-12-07T08:57:07Z</time>
      </trkpt>
      <trkpt lat="42.96571" lon="0.29739">
        <ele>1491</ele>
        <time>2021-12-07T08:57:19Z</time>
      </trkpt>
      <trkpt lat="42.96577" lon="0.29737">
        <ele>1493</ele>
        <time>2021-12-07T08:57:32Z</time>
      </trkpt>
      <trkpt lat="42.96583" lon="0.29734">
        <ele>1496</ele>
        <time>2021-12-07T08:57:49Z</time>
      </trkpt>
      <trkpt lat="42.96586" lon="0.29749">
        <ele>1499</ele>
        <time>2021-12-07T08:58:05Z</time>
      </trkpt>
      <trkpt lat="42.96591" lon="0.29757">
        <ele>1502</ele>
        <time>2021-12-07T08:58:23Z</time>
      </trkpt>
      <trkpt lat="42.96592" lon="0.29769">
        <ele>1504</ele>
        <time>2021-12-07T08:58:39Z</time>
      </trkpt>
      <trkpt lat="42.96594" lon="0.29782">
        <ele>1507</ele>
        <time>2021-12-07T08:58:54Z</time>
      </trkpt>
      <trkpt lat="42.96596" lon="0.29793">
        <ele>1508</ele>
        <time>2021-12-07T08:59:11Z</time>
      </trkpt>
      <trkpt lat="42.96596" lon="0.29808">
        <ele>1510</ele>
        <time>2021-12-07T08:59:29Z</time>
      </trkpt>
      <trkpt lat="42.966" lon="0.29819">
        <ele>1512</ele>
        <time>2021-12-07T08:59:46Z</time>
      </trkpt>
      <trkpt lat="42.96601" lon="0.2982">
        <ele>1512</ele>
        <time>2021-12-07T08:59:47Z</time>
      </trkpt>
      <trkpt lat="42.966" lon="0.29838">
        <ele>1513</ele>
        <time>2021-12-07T09:00:04Z</time>
      </trkpt>
      <trkpt lat="42.96601" lon="0.29844">
        <ele>1513</ele>
        <time>2021-12-07T09:00:22Z</time>
      </trkpt>
      <trkpt lat="42.96605" lon="0.29851">
        <ele>1515</ele>
        <time>2021-12-07T09:00:38Z</time>
      </trkpt>
      <trkpt lat="42.96606" lon="0.29853">
        <ele>1516</ele>
        <time>2021-12-07T09:00:42Z</time>
      </trkpt>
      <trkpt lat="42.96612" lon="0.29865">
        <ele>1518</ele>
        <time>2021-12-07T09:00:59Z</time>
      </trkpt>
      <trkpt lat="42.96614" lon="0.29863">
        <ele>1519</ele>
        <time>2021-12-07T09:01:12Z</time>
      </trkpt>
      <trkpt lat="42.96622" lon="0.29848">
        <ele>1523</ele>
        <time>2021-12-07T09:01:29Z</time>
      </trkpt>
      <trkpt lat="42.96626" lon="0.29839">
        <ele>1525</ele>
        <time>2021-12-07T09:01:46Z</time>
      </trkpt>
      <trkpt lat="42.96634" lon="0.29824">
        <ele>1527</ele>
        <time>2021-12-07T09:02:06Z</time>
      </trkpt>
      <trkpt lat="42.9664" lon="0.29814">
        <ele>1529</ele>
        <time>2021-12-07T09:02:18Z</time>
      </trkpt>
      <trkpt lat="42.96648" lon="0.29802">
        <ele>1531</ele>
        <time>2021-12-07T09:02:35Z</time>
      </trkpt>
      <trkpt lat="42.96653" lon="0.29793">
        <ele>1532</ele>
        <time>2021-12-07T09:02:50Z</time>
      </trkpt>
      <trkpt lat="42.96658" lon="0.29785">
        <ele>1533</ele>
        <time>2021-12-07T09:03:06Z</time>
      </trkpt>
      <trkpt lat="42.96664" lon="0.2981">
        <ele>1539</ele>
        <time>2021-12-07T09:03:20Z</time>
      </trkpt>
      <trkpt lat="42.96668" lon="0.29821">
        <ele>1542</ele>
        <time>2021-12-07T09:03:37Z</time>
      </trkpt>
      <trkpt lat="42.96673" lon="0.29834">
        <ele>1546</ele>
        <time>2021-12-07T09:03:55Z</time>
      </trkpt>
      <trkpt lat="42.96676" lon="0.29843">
        <ele>1547</ele>
        <time>2021-12-07T09:04:08Z</time>
      </trkpt>
      <trkpt lat="42.9668" lon="0.29854">
        <ele>1549</ele>
        <time>2021-12-07T09:04:25Z</time>
      </trkpt>
      <trkpt lat="42.96682" lon="0.29848">
        <ele>1550</ele>
        <time>2021-12-07T09:04:37Z</time>
      </trkpt>
      <trkpt lat="42.96686" lon="0.29838">
        <ele>1552</ele>
        <time>2021-12-07T09:04:52Z</time>
      </trkpt>
      <trkpt lat="42.9669" lon="0.2983">
        <ele>1554</ele>
        <time>2021-12-07T09:05:06Z</time>
      </trkpt>
      <trkpt lat="42.96694" lon="0.29823">
        <ele>1555</ele>
        <time>2021-12-07T09:05:20Z</time>
      </trkpt>
      <trkpt lat="42.96701" lon="0.29814">
        <ele>1557</ele>
        <time>2021-12-07T09:05:35Z</time>
      </trkpt>
      <trkpt lat="42.96706" lon="0.29807">
        <ele>1559</ele>
        <time>2021-12-07T09:05:47Z</time>
      </trkpt>
      <trkpt lat="42.96713" lon="0.29799">
        <ele>1561</ele>
        <time>2021-12-07T09:06:04Z</time>
      </trkpt>
      <trkpt lat="42.9672" lon="0.29794">
        <ele>1564</ele>
        <time>2021-12-07T09:06:20Z</time>
      </trkpt>
      <trkpt lat="42.96724" lon="0.2979">
        <ele>1566</ele>
        <time>2021-12-07T09:06:35Z</time>
      </trkpt>
      <trkpt lat="42.96727" lon="0.29789">
        <ele>1567</ele>
        <time>2021-12-07T09:06:44Z</time>
      </trkpt>
      <trkpt lat="42.96733" lon="0.29807">
        <ele>1571</ele>
        <time>2021-12-07T09:06:59Z</time>
      </trkpt>
      <trkpt lat="42.96737" lon="0.29814">
        <ele>1575</ele>
        <time>2021-12-07T09:07:11Z</time>
      </trkpt>
      <trkpt lat="42.96742" lon="0.298">
        <ele>1575</ele>
        <time>2021-12-07T09:07:28Z</time>
      </trkpt>
      <trkpt lat="42.96748" lon="0.29789">
        <ele>1577</ele>
        <time>2021-12-07T09:07:45Z</time>
      </trkpt>
      <trkpt lat="42.96754" lon="0.29786">
        <ele>1580</ele>
        <time>2021-12-07T09:08:01Z</time>
      </trkpt>
      <trkpt lat="42.9676" lon="0.298">
        <ele>1584</ele>
        <time>2021-12-07T09:08:16Z</time>
      </trkpt>
      <trkpt lat="42.96761" lon="0.29804">
        <ele>1585</ele>
        <time>2021-12-07T09:08:31Z</time>
      </trkpt>
      <trkpt lat="42.96766" lon="0.29796">
        <ele>1587</ele>
        <time>2021-12-07T09:08:48Z</time>
      </trkpt>
      <trkpt lat="42.96771" lon="0.29789">
        <ele>1589</ele>
        <time>2021-12-07T09:09:02Z</time>
      </trkpt>
      <trkpt lat="42.96776" lon="0.29806">
        <ele>1593</ele>
        <time>2021-12-07T09:09:17Z</time>
      </trkpt>
      <trkpt lat="42.96777" lon="0.29817">
        <ele>1595</ele>
        <time>2021-12-07T09:09:32Z</time>
      </trkpt>
      <trkpt lat="42.96778" lon="0.29826">
        <ele>1596</ele>
        <time>2021-12-07T09:09:46Z</time>
      </trkpt>
      <trkpt lat="42.96778" lon="0.29838">
        <ele>1598</ele>
        <time>2021-12-07T09:10:02Z</time>
      </trkpt>
      <trkpt lat="42.96779" lon="0.29844">
        <ele>1598</ele>
        <time>2021-12-07T09:10:07Z</time>
      </trkpt>
      <trkpt lat="42.96781" lon="0.29853">
        <ele>1600</ele>
        <time>2021-12-07T09:10:22Z</time>
      </trkpt>
      <trkpt lat="42.96783" lon="0.29849">
        <ele>1601</ele>
        <time>2021-12-07T09:10:33Z</time>
      </trkpt>
      <trkpt lat="42.9679" lon="0.29841">
        <ele>1603</ele>
        <time>2021-12-07T09:10:46Z</time>
      </trkpt>
      <trkpt lat="42.96795" lon="0.29851">
        <ele>1606</ele>
        <time>2021-12-07T09:10:59Z</time>
      </trkpt>
      <trkpt lat="42.96799" lon="0.2986">
        <ele>1610</ele>
        <time>2021-12-07T09:11:14Z</time>
      </trkpt>
      <trkpt lat="42.96801" lon="0.29871">
        <ele>1612</ele>
        <time>2021-12-07T09:11:27Z</time>
      </trkpt>
      <trkpt lat="42.96805" lon="0.2988">
        <ele>1615</ele>
        <time>2021-12-07T09:11:46Z</time>
      </trkpt>
      <trkpt lat="42.96809" lon="0.29874">
        <ele>1616</ele>
        <time>2021-12-07T09:11:57Z</time>
      </trkpt>
      <trkpt lat="42.96814" lon="0.29872">
        <ele>1618</ele>
        <time>2021-12-07T09:12:11Z</time>
      </trkpt>
      <trkpt lat="42.96817" lon="0.29884">
        <ele>1621</ele>
        <time>2021-12-07T09:12:27Z</time>
      </trkpt>
      <trkpt lat="42.9682" lon="0.29889">
        <ele>1623</ele>
        <time>2021-12-07T09:12:38Z</time>
      </trkpt>
      <trkpt lat="42.96824" lon="0.29889">
        <ele>1625</ele>
        <time>2021-12-07T09:12:53Z</time>
      </trkpt>
      <trkpt lat="42.96828" lon="0.29881">
        <ele>1627</ele>
        <time>2021-12-07T09:13:05Z</time>
      </trkpt>
      <trkpt lat="42.96835" lon="0.29885">
        <ele>1631</ele>
        <time>2021-12-07T09:13:19Z</time>
      </trkpt>
      <trkpt lat="42.96839" lon="0.29893">
        <ele>1633</ele>
        <time>2021-12-07T09:13:35Z</time>
      </trkpt>
      <trkpt lat="42.96843" lon="0.299">
        <ele>1636</ele>
        <time>2021-12-07T09:13:48Z</time>
      </trkpt>
      <trkpt lat="42.96846" lon="0.29911">
        <ele>1638</ele>
        <time>2021-12-07T09:14:03Z</time>
      </trkpt>
      <trkpt lat="42.96851" lon="0.29912">
        <ele>1640</ele>
        <time>2021-12-07T09:14:18Z</time>
      </trkpt>
      <trkpt lat="42.96855" lon="0.29906">
        <ele>1642</ele>
        <time>2021-12-07T09:14:31Z</time>
      </trkpt>
      <trkpt lat="42.96861" lon="0.299">
        <ele>1645</ele>
        <time>2021-12-07T09:14:46Z</time>
      </trkpt>
      <trkpt lat="42.96866" lon="0.29891">
        <ele>1647</ele>
        <time>2021-12-07T09:15:01Z</time>
      </trkpt>
      <trkpt lat="42.96873" lon="0.29884">
        <ele>1650</ele>
        <time>2021-12-07T09:15:15Z</time>
      </trkpt>
      <trkpt lat="42.96878" lon="0.2988">
        <ele>1652</ele>
        <time>2021-12-07T09:15:29Z</time>
      </trkpt>
      <trkpt lat="42.96883" lon="0.29872">
        <ele>1654</ele>
        <time>2021-12-07T09:15:42Z</time>
      </trkpt>
      <trkpt lat="42.96886" lon="0.29866">
        <ele>1655</ele>
        <time>2021-12-07T09:15:57Z</time>
      </trkpt>
      <trkpt lat="42.96891" lon="0.29861">
        <ele>1657</ele>
        <time>2021-12-07T09:16:10Z</time>
      </trkpt>
      <trkpt lat="42.96896" lon="0.29869">
        <ele>1659</ele>
        <time>2021-12-07T09:16:22Z</time>
      </trkpt>
      <trkpt lat="42.96896" lon="0.2987">
        <ele>1660</ele>
        <time>2021-12-07T09:16:24Z</time>
      </trkpt>
      <trkpt lat="42.969" lon="0.29877">
        <ele>1662</ele>
        <time>2021-12-07T09:16:38Z</time>
      </trkpt>
      <trkpt lat="42.96902" lon="0.29882">
        <ele>1663</ele>
        <time>2021-12-07T09:16:51Z</time>
      </trkpt>
      <trkpt lat="42.96907" lon="0.2989">
        <ele>1664</ele>
        <time>2021-12-07T09:17:05Z</time>
      </trkpt>
      <trkpt lat="42.96907" lon="0.29891">
        <ele>1664</ele>
        <time>2021-12-07T09:17:06Z</time>
      </trkpt>
      <trkpt lat="42.96914" lon="0.29889">
        <ele>1667</ele>
        <time>2021-12-07T09:17:21Z</time>
      </trkpt>
      <trkpt lat="42.96919" lon="0.29879">
        <ele>1669</ele>
        <time>2021-12-07T09:17:35Z</time>
      </trkpt>
      <trkpt lat="42.96924" lon="0.29879">
        <ele>1671</ele>
        <time>2021-12-07T09:17:49Z</time>
      </trkpt>
      <trkpt lat="42.9693" lon="0.29873">
        <ele>1673</ele>
        <time>2021-12-07T09:18:05Z</time>
      </trkpt>
      <trkpt lat="42.96935" lon="0.29867">
        <ele>1676</ele>
        <time>2021-12-07T09:18:18Z</time>
      </trkpt>
      <trkpt lat="42.96936" lon="0.29867">
        <ele>1676</ele>
        <time>2021-12-07T09:18:20Z</time>
      </trkpt>
      <trkpt lat="42.96942" lon="0.29873">
        <ele>1678</ele>
        <time>2021-12-07T09:18:35Z</time>
      </trkpt>
      <trkpt lat="42.96951" lon="0.29875">
        <ele>1680</ele>
        <time>2021-12-07T09:18:52Z</time>
      </trkpt>
      <trkpt lat="42.96956" lon="0.29873">
        <ele>1682</ele>
        <time>2021-12-07T09:19:07Z</time>
      </trkpt>
      <trkpt lat="42.96957" lon="0.2987">
        <ele>1683</ele>
        <time>2021-12-07T09:19:11Z</time>
      </trkpt>
      <trkpt lat="42.96959" lon="0.29867">
        <ele>1684</ele>
        <time>2021-12-07T09:19:29Z</time>
      </trkpt>
      <trkpt lat="42.96961" lon="0.29867">
        <ele>1684</ele>
        <time>2021-12-07T09:19:47Z</time>
      </trkpt>
      <trkpt lat="42.96962" lon="0.29858">
        <ele>1686</ele>
        <time>2021-12-07T09:20:00Z</time>
      </trkpt>
      <trkpt lat="42.9697" lon="0.29855">
        <ele>1689</ele>
        <time>2021-12-07T09:20:14Z</time>
      </trkpt>
      <trkpt lat="42.96979" lon="0.29861">
        <ele>1690</ele>
        <time>2021-12-07T09:20:29Z</time>
      </trkpt>
      <trkpt lat="42.96984" lon="0.29857">
        <ele>1692</ele>
        <time>2021-12-07T09:20:42Z</time>
      </trkpt>
      <trkpt lat="42.96991" lon="0.29843">
        <ele>1696</ele>
        <time>2021-12-07T09:21:00Z</time>
      </trkpt>
      <trkpt lat="42.96991" lon="0.29842">
        <ele>1696</ele>
        <time>2021-12-07T09:21:01Z</time>
      </trkpt>
      <trkpt lat="42.96996" lon="0.29841">
        <ele>1698</ele>
        <time>2021-12-07T09:21:16Z</time>
      </trkpt>
      <trkpt lat="42.96996" lon="0.29841">
        <ele>1698</ele>
        <time>2021-12-07T09:21:43Z</time>
      </trkpt>
      <trkpt lat="42.96997" lon="0.29839">
        <ele>1699</ele>
        <time>2021-12-07T09:22:06Z</time>
      </trkpt>
      <trkpt lat="42.97002" lon="0.29832">
        <ele>1701</ele>
        <time>2021-12-07T09:22:17Z</time>
      </trkpt>
      <trkpt lat="42.97007" lon="0.29828">
        <ele>1703</ele>
        <time>2021-12-07T09:22:29Z</time>
      </trkpt>
      <trkpt lat="42.97014" lon="0.29823">
        <ele>1705</ele>
        <time>2021-12-07T09:22:45Z</time>
      </trkpt>
      <trkpt lat="42.97016" lon="0.29819">
        <ele>1706</ele>
        <time>2021-12-07T09:23:00Z</time>
      </trkpt>
      <trkpt lat="42.9702" lon="0.29807">
        <ele>1709</ele>
        <time>2021-12-07T09:23:15Z</time>
      </trkpt>
      <trkpt lat="42.97024" lon="0.29795">
        <ele>1711</ele>
        <time>2021-12-07T09:23:31Z</time>
      </trkpt>
      <trkpt lat="42.97026" lon="0.29796">
        <ele>1712</ele>
        <time>2021-12-07T09:23:35Z</time>
      </trkpt>
      <trkpt lat="42.97033" lon="0.29802">
        <ele>1714</ele>
        <time>2021-12-07T09:23:47Z</time>
      </trkpt>
      <trkpt lat="42.97038" lon="0.29799">
        <ele>1716</ele>
        <time>2021-12-07T09:24:02Z</time>
      </trkpt>
      <trkpt lat="42.97046" lon="0.298">
        <ele>1718</ele>
        <time>2021-12-07T09:24:12Z</time>
      </trkpt>
      <trkpt lat="42.97054" lon="0.29808">
        <ele>1719</ele>
        <time>2021-12-07T09:24:28Z</time>
      </trkpt>
      <trkpt lat="42.97061" lon="0.29808">
        <ele>1721</ele>
        <time>2021-12-07T09:24:42Z</time>
      </trkpt>
      <trkpt lat="42.97063" lon="0.298">
        <ele>1723</ele>
        <time>2021-12-07T09:24:52Z</time>
      </trkpt>
      <trkpt lat="42.97066" lon="0.2979">
        <ele>1725</ele>
        <time>2021-12-07T09:25:06Z</time>
      </trkpt>
      <trkpt lat="42.97071" lon="0.29782">
        <ele>1728</ele>
        <time>2021-12-07T09:25:19Z</time>
      </trkpt>
      <trkpt lat="42.97072" lon="0.29783">
        <ele>1728</ele>
        <time>2021-12-07T09:25:21Z</time>
      </trkpt>
      <trkpt lat="42.97079" lon="0.2979">
        <ele>1729</ele>
        <time>2021-12-07T09:25:35Z</time>
      </trkpt>
      <trkpt lat="42.97086" lon="0.29786">
        <ele>1732</ele>
        <time>2021-12-07T09:25:52Z</time>
      </trkpt>
      <trkpt lat="42.97089" lon="0.29776">
        <ele>1735</ele>
        <time>2021-12-07T09:26:07Z</time>
      </trkpt>
      <trkpt lat="42.9709" lon="0.2977">
        <ele>1736</ele>
        <time>2021-12-07T09:26:14Z</time>
      </trkpt>
      <trkpt lat="42.97093" lon="0.29762">
        <ele>1738</ele>
        <time>2021-12-07T09:26:25Z</time>
      </trkpt>
      <trkpt lat="42.97093" lon="0.29762">
        <ele>1738</ele>
        <time>2021-12-07T09:26:26Z</time>
      </trkpt>
      <trkpt lat="42.97093" lon="0.2976">
        <ele>1738</ele>
        <time>2021-12-07T09:26:29Z</time>
      </trkpt>
      <trkpt lat="42.97096" lon="0.29754">
        <ele>1740</ele>
        <time>2021-12-07T09:26:39Z</time>
      </trkpt>
      <trkpt lat="42.97104" lon="0.29759">
        <ele>1743</ele>
        <time>2021-12-07T09:26:53Z</time>
      </trkpt>
      <trkpt lat="42.9711" lon="0.29761">
        <ele>1745</ele>
        <time>2021-12-07T09:27:06Z</time>
      </trkpt>
      <trkpt lat="42.97113" lon="0.29763">
        <ele>1745</ele>
        <time>2021-12-07T09:27:17Z</time>
      </trkpt>
      <trkpt lat="42.97121" lon="0.29767">
        <ele>1747</ele>
        <time>2021-12-07T09:27:37Z</time>
      </trkpt>
      <trkpt lat="42.97122" lon="0.29765">
        <ele>1747</ele>
        <time>2021-12-07T09:28:11Z</time>
      </trkpt>
      <trkpt lat="42.97124" lon="0.2977">
        <ele>1747</ele>
        <time>2021-12-07T09:28:40Z</time>
      </trkpt>
      <trkpt lat="42.97128" lon="0.29772">
        <ele>1747</ele>
        <time>2021-12-07T09:28:58Z</time>
      </trkpt>
      <trkpt lat="42.97133" lon="0.29773">
        <ele>1748</ele>
        <time>2021-12-07T09:29:06Z</time>
      </trkpt>
      <trkpt lat="42.97142" lon="0.29772">
        <ele>1750</ele>
        <time>2021-12-07T09:29:21Z</time>
      </trkpt>
      <trkpt lat="42.97143" lon="0.29767">
        <ele>1751</ele>
        <time>2021-12-07T09:29:33Z</time>
      </trkpt>
      <trkpt lat="42.97143" lon="0.29756">
        <ele>1754</ele>
        <time>2021-12-07T09:29:48Z</time>
      </trkpt>
      <trkpt lat="42.97146" lon="0.2974">
        <ele>1757</ele>
        <time>2021-12-07T09:30:06Z</time>
      </trkpt>
      <trkpt lat="42.97148" lon="0.29732">
        <ele>1759</ele>
        <time>2021-12-07T09:30:19Z</time>
      </trkpt>
      <trkpt lat="42.97151" lon="0.29718">
        <ele>1762</ele>
        <time>2021-12-07T09:30:38Z</time>
      </trkpt>
      <trkpt lat="42.97155" lon="0.29708">
        <ele>1765</ele>
        <time>2021-12-07T09:30:52Z</time>
      </trkpt>
      <trkpt lat="42.97157" lon="0.29704">
        <ele>1766</ele>
        <time>2021-12-07T09:30:57Z</time>
      </trkpt>
      <trkpt lat="42.97164" lon="0.29706">
        <ele>1768</ele>
        <time>2021-12-07T09:31:10Z</time>
      </trkpt>
      <trkpt lat="42.9717" lon="0.29707">
        <ele>1770</ele>
        <time>2021-12-07T09:31:23Z</time>
      </trkpt>
      <trkpt lat="42.97173" lon="0.29701">
        <ele>1772</ele>
        <time>2021-12-07T09:31:39Z</time>
      </trkpt>
      <trkpt lat="42.97174" lon="0.29696">
        <ele>1773</ele>
        <time>2021-12-07T09:31:44Z</time>
      </trkpt>
      <trkpt lat="42.97177" lon="0.29682">
        <ele>1776</ele>
        <time>2021-12-07T09:31:59Z</time>
      </trkpt>
      <trkpt lat="42.97179" lon="0.29671">
        <ele>1778</ele>
        <time>2021-12-07T09:32:15Z</time>
      </trkpt>
      <trkpt lat="42.97181" lon="0.29671">
        <ele>1779</ele>
        <time>2021-12-07T09:32:18Z</time>
      </trkpt>
      <trkpt lat="42.97187" lon="0.29667">
        <ele>1781</ele>
        <time>2021-12-07T09:32:32Z</time>
      </trkpt>
      <trkpt lat="42.97188" lon="0.29655">
        <ele>1783</ele>
        <time>2021-12-07T09:32:48Z</time>
      </trkpt>
      <trkpt lat="42.97192" lon="0.29638">
        <ele>1786</ele>
        <time>2021-12-07T09:33:06Z</time>
      </trkpt>
      <trkpt lat="42.97191" lon="0.29637">
        <ele>1786</ele>
        <time>2021-12-07T09:33:20Z</time>
      </trkpt>
      <trkpt lat="42.97195" lon="0.29633">
        <ele>1788</ele>
        <time>2021-12-07T09:33:38Z</time>
      </trkpt>
      <trkpt lat="42.97198" lon="0.29622">
        <ele>1790</ele>
        <time>2021-12-07T09:33:52Z</time>
      </trkpt>
      <trkpt lat="42.97202" lon="0.29614">
        <ele>1792</ele>
        <time>2021-12-07T09:34:02Z</time>
      </trkpt>
      <trkpt lat="42.97208" lon="0.29601">
        <ele>1795</ele>
        <time>2021-12-07T09:34:18Z</time>
      </trkpt>
      <trkpt lat="42.97211" lon="0.29595">
        <ele>1796</ele>
        <time>2021-12-07T09:34:26Z</time>
      </trkpt>
      <trkpt lat="42.97213" lon="0.29593">
        <ele>1797</ele>
        <time>2021-12-07T09:34:30Z</time>
      </trkpt>
      <trkpt lat="42.9722" lon="0.29595">
        <ele>1799</ele>
        <time>2021-12-07T09:34:42Z</time>
      </trkpt>
      <trkpt lat="42.9722" lon="0.29596">
        <ele>1799</ele>
        <time>2021-12-07T09:34:43Z</time>
      </trkpt>
      <trkpt lat="42.97226" lon="0.29603">
        <ele>1800</ele>
        <time>2021-12-07T09:34:57Z</time>
      </trkpt>
      <trkpt lat="42.97233" lon="0.2961">
        <ele>1802</ele>
        <time>2021-12-07T09:35:12Z</time>
      </trkpt>
      <trkpt lat="42.97236" lon="0.29614">
        <ele>1802</ele>
        <time>2021-12-07T09:35:20Z</time>
      </trkpt>
      <trkpt lat="42.97245" lon="0.29626">
        <ele>1803</ele>
        <time>2021-12-07T09:35:38Z</time>
      </trkpt>
      <trkpt lat="42.97254" lon="0.29631">
        <ele>1804</ele>
        <time>2021-12-07T09:35:52Z</time>
      </trkpt>
      <trkpt lat="42.97263" lon="0.29632">
        <ele>1806</ele>
        <time>2021-12-07T09:36:08Z</time>
      </trkpt>
      <trkpt lat="42.97272" lon="0.2963">
        <ele>1809</ele>
        <time>2021-12-07T09:36:22Z</time>
      </trkpt>
      <trkpt lat="42.97281" lon="0.29634">
        <ele>1810</ele>
        <time>2021-12-07T09:36:37Z</time>
      </trkpt>
      <trkpt lat="42.97288" lon="0.2964">
        <ele>1810</ele>
        <time>2021-12-07T09:36:52Z</time>
      </trkpt>
      <trkpt lat="42.97296" lon="0.29639">
        <ele>1811</ele>
        <time>2021-12-07T09:37:05Z</time>
      </trkpt>
      <trkpt lat="42.97308" lon="0.29634">
        <ele>1814</ele>
        <time>2021-12-07T09:37:23Z</time>
      </trkpt>
      <trkpt lat="42.97317" lon="0.29629">
        <ele>1816</ele>
        <time>2021-12-07T09:37:37Z</time>
      </trkpt>
      <trkpt lat="42.97321" lon="0.29624">
        <ele>1817</ele>
        <time>2021-12-07T09:37:46Z</time>
      </trkpt>
      <trkpt lat="42.97327" lon="0.2961">
        <ele>1820</ele>
        <time>2021-12-07T09:38:01Z</time>
      </trkpt>
      <trkpt lat="42.97334" lon="0.29596">
        <ele>1823</ele>
        <time>2021-12-07T09:38:16Z</time>
      </trkpt>
      <trkpt lat="42.97338" lon="0.29591">
        <ele>1823</ele>
        <time>2021-12-07T09:38:21Z</time>
      </trkpt>
      <trkpt lat="42.97342" lon="0.29586">
        <ele>1824</ele>
        <time>2021-12-07T09:38:27Z</time>
      </trkpt>
      <trkpt lat="42.97348" lon="0.29578">
        <ele>1824</ele>
        <time>2021-12-07T09:38:39Z</time>
      </trkpt>
      <trkpt lat="42.97355" lon="0.2957">
        <ele>1824</ele>
        <time>2021-12-07T09:38:52Z</time>
      </trkpt>
      <trkpt lat="42.97361" lon="0.29565">
        <ele>1823</ele>
        <time>2021-12-07T09:39:04Z</time>
      </trkpt>
      <trkpt lat="42.97364" lon="0.29576">
        <ele>1823</ele>
        <time>2021-12-07T09:39:17Z</time>
      </trkpt>
      <trkpt lat="42.97367" lon="0.29586">
        <ele>1823</ele>
        <time>2021-12-07T09:39:26Z</time>
      </trkpt>
      <trkpt lat="42.97368" lon="0.2959">
        <ele>1823</ele>
        <time>2021-12-07T09:39:30Z</time>
      </trkpt>
      <trkpt lat="42.97372" lon="0.29603">
        <ele>1823</ele>
        <time>2021-12-07T09:39:48Z</time>
      </trkpt>
      <trkpt lat="42.97371" lon="0.29604">
        <ele>1823</ele>
        <time>2021-12-07T09:40:04Z</time>
      </trkpt>
      <trkpt lat="42.97372" lon="0.29606">
        <ele>1823</ele>
        <time>2021-12-07T09:40:47Z</time>
      </trkpt>
      <trkpt lat="42.97372" lon="0.29606">
        <ele>1823</ele>
        <time>2021-12-07T09:41:32Z</time>
      </trkpt>
      <trkpt lat="42.97372" lon="0.29604">
        <ele>1823</ele>
        <time>2021-12-07T09:41:41Z</time>
      </trkpt>
      <trkpt lat="42.97372" lon="0.29602">
        <ele>1823</ele>
        <time>2021-12-07T09:41:56Z</time>
      </trkpt>
      <trkpt lat="42.97372" lon="0.29603">
        <ele>1823</ele>
        <time>2021-12-07T09:42:17Z</time>
      </trkpt>
      <trkpt lat="42.97372" lon="0.29605">
        <ele>1823</ele>
        <time>2021-12-07T09:42:39Z</time>
      </trkpt>
      <trkpt lat="42.97373" lon="0.29601">
        <ele>1823</ele>
        <time>2021-12-07T09:43:01Z</time>
      </trkpt>
      <trkpt lat="42.97372" lon="0.296">
        <ele>1823</ele>
        <time>2021-12-07T09:43:25Z</time>
      </trkpt>
      <trkpt lat="42.97373" lon="0.29602">
        <ele>1823</ele>
        <time>2021-12-07T09:43:31Z</time>
      </trkpt>
      <trkpt lat="42.97373" lon="0.29603">
        <ele>1823</ele>
        <time>2021-12-07T09:43:49Z</time>
      </trkpt>
      <trkpt lat="42.97373" lon="0.29605">
        <ele>1823</ele>
        <time>2021-12-07T09:44:02Z</time>
      </trkpt>
      <trkpt lat="42.97372" lon="0.29605">
        <ele>1823</ele>
        <time>2021-12-07T09:44:10Z</time>
      </trkpt>
      <trkpt lat="42.97372" lon="0.29605">
        <ele>1823</ele>
        <time>2021-12-07T09:44:28Z</time>
      </trkpt>
      <trkpt lat="42.97372" lon="0.29603">
        <ele>1823</ele>
        <time>2021-12-07T09:44:43Z</time>
      </trkpt>
      <trkpt lat="42.97371" lon="0.29603">
        <ele>1823</ele>
        <time>2021-12-07T09:44:59Z</time>
      </trkpt>
      <trkpt lat="42.97373" lon="0.29604">
        <ele>1823</ele>
        <time>2021-12-07T09:45:23Z</time>
      </trkpt>
      <trkpt lat="42.97374" lon="0.29605">
        <ele>1823</ele>
        <time>2021-12-07T09:45:49Z</time>
      </trkpt>
      <trkpt lat="42.97379" lon="0.29617">
        <ele>1823</ele>
        <time>2021-12-07T09:46:03Z</time>
      </trkpt>
      <trkpt lat="42.97379" lon="0.29618">
        <ele>1823</ele>
        <time>2021-12-07T09:46:04Z</time>
      </trkpt>
      <trkpt lat="42.97385" lon="0.29633">
        <ele>1823</ele>
        <time>2021-12-07T09:46:20Z</time>
      </trkpt>
      <trkpt lat="42.97386" lon="0.29638">
        <ele>1823</ele>
        <time>2021-12-07T09:46:24Z</time>
      </trkpt>
      <trkpt lat="42.97389" lon="0.29648">
        <ele>1821</ele>
        <time>2021-12-07T09:46:40Z</time>
      </trkpt>
      <trkpt lat="42.97394" lon="0.29655">
        <ele>1821</ele>
        <time>2021-12-07T09:46:51Z</time>
      </trkpt>
      <trkpt lat="42.97396" lon="0.29656">
        <ele>1821</ele>
        <time>2021-12-07T09:46:58Z</time>
      </trkpt>
      <trkpt lat="42.97396" lon="0.29656">
        <ele>1821</ele>
        <time>2021-12-07T09:46:59Z</time>
      </trkpt>
      <trkpt lat="42.97398" lon="0.29654">
        <ele>1822</ele>
        <time>2021-12-07T09:47:02Z</time>
      </trkpt>
      <trkpt lat="42.97404" lon="0.29644">
        <ele>1826</ele>
        <time>2021-12-07T09:47:17Z</time>
      </trkpt>
      <trkpt lat="42.97408" lon="0.29637">
        <ele>1829</ele>
        <time>2021-12-07T09:47:28Z</time>
      </trkpt>
      <trkpt lat="42.97409" lon="0.29637">
        <ele>1829</ele>
        <time>2021-12-07T09:47:29Z</time>
      </trkpt>
      <trkpt lat="42.9741" lon="0.29637">
        <ele>1829</ele>
        <time>2021-12-07T09:47:32Z</time>
      </trkpt>
      <trkpt lat="42.97411" lon="0.29639">
        <ele>1830</ele>
        <time>2021-12-07T09:47:34Z</time>
      </trkpt>
      <trkpt lat="42.97419" lon="0.29648">
        <ele>1829</ele>
        <time>2021-12-07T09:47:49Z</time>
      </trkpt>
      <trkpt lat="42.97426" lon="0.29648">
        <ele>1831</ele>
        <time>2021-12-07T09:48:02Z</time>
      </trkpt>
      <trkpt lat="42.97434" lon="0.29646">
        <ele>1834</ele>
        <time>2021-12-07T09:48:17Z</time>
      </trkpt>
      <trkpt lat="42.97443" lon="0.29646">
        <ele>1837</ele>
        <time>2021-12-07T09:48:36Z</time>
      </trkpt>
      <trkpt lat="42.97452" lon="0.29642">
        <ele>1841</ele>
        <time>2021-12-07T09:48:52Z</time>
      </trkpt>
      <trkpt lat="42.97458" lon="0.29639">
        <ele>1844</ele>
        <time>2021-12-07T09:49:05Z</time>
      </trkpt>
      <trkpt lat="42.97465" lon="0.29634">
        <ele>1848</ele>
        <time>2021-12-07T09:49:18Z</time>
      </trkpt>
      <trkpt lat="42.97469" lon="0.29628">
        <ele>1851</ele>
        <time>2021-12-07T09:49:34Z</time>
      </trkpt>
      <trkpt lat="42.97473" lon="0.29626">
        <ele>1852</ele>
        <time>2021-12-07T09:49:43Z</time>
      </trkpt>
      <trkpt lat="42.97482" lon="0.29626">
        <ele>1855</ele>
        <time>2021-12-07T09:49:59Z</time>
      </trkpt>
      <trkpt lat="42.97485" lon="0.29629">
        <ele>1856</ele>
        <time>2021-12-07T09:50:14Z</time>
      </trkpt>
      <trkpt lat="42.97487" lon="0.2963">
        <ele>1856</ele>
        <time>2021-12-07T09:50:27Z</time>
      </trkpt>
      <trkpt lat="42.97489" lon="0.29625">
        <ele>1857</ele>
        <time>2021-12-07T09:50:40Z</time>
      </trkpt>
      <trkpt lat="42.97491" lon="0.29622">
        <ele>1858</ele>
        <time>2021-12-07T09:50:54Z</time>
      </trkpt>
      <trkpt lat="42.97491" lon="0.2962">
        <ele>1858</ele>
        <time>2021-12-07T09:50:56Z</time>
      </trkpt>
      <trkpt lat="42.97491" lon="0.29613">
        <ele>1859</ele>
        <time>2021-12-07T09:51:08Z</time>
      </trkpt>
      <trkpt lat="42.9749" lon="0.29608">
        <ele>1859</ele>
        <time>2021-12-07T09:51:23Z</time>
      </trkpt>
      <trkpt lat="42.9749" lon="0.29606">
        <ele>1859</ele>
        <time>2021-12-07T09:51:40Z</time>
      </trkpt>
      <trkpt lat="42.97489" lon="0.29604">
        <ele>1859</ele>
        <time>2021-12-07T09:51:45Z</time>
      </trkpt>
      <trkpt lat="42.9749" lon="0.29608">
        <ele>1859</ele>
        <time>2021-12-07T09:52:03Z</time>
      </trkpt>
      <trkpt lat="42.97491" lon="0.29606">
        <ele>1859</ele>
        <time>2021-12-07T09:52:27Z</time>
      </trkpt>
      <trkpt lat="42.9749" lon="0.29606">
        <ele>1859</ele>
        <time>2021-12-07T09:52:30Z</time>
      </trkpt>
      <trkpt lat="42.9749" lon="0.29606">
        <ele>1859</ele>
        <time>2021-12-07T09:52:40Z</time>
      </trkpt>
      <trkpt lat="42.97489" lon="0.29604">
        <ele>1859</ele>
        <time>2021-12-07T09:52:55Z</time>
      </trkpt>
      <trkpt lat="42.9749" lon="0.29605">
        <ele>1859</ele>
        <time>2021-12-07T09:53:16Z</time>
      </trkpt>
      <trkpt lat="42.97491" lon="0.2961">
        <ele>1859</ele>
        <time>2021-12-07T09:53:30Z</time>
      </trkpt>
      <trkpt lat="42.97491" lon="0.2961">
        <ele>1859</ele>
        <time>2021-12-07T09:54:04Z</time>
      </trkpt>
      <trkpt lat="42.97492" lon="0.2962">
        <ele>1859</ele>
        <time>2021-12-07T09:54:26Z</time>
      </trkpt>
      <trkpt lat="42.97492" lon="0.29621">
        <ele>1859</ele>
        <time>2021-12-07T09:54:41Z</time>
      </trkpt>
      <trkpt lat="42.97498" lon="0.29627">
        <ele>1860</ele>
        <time>2021-12-07T09:54:50Z</time>
      </trkpt>
      <trkpt lat="42.97505" lon="0.29641">
        <ele>1859</ele>
        <time>2021-12-07T09:54:59Z</time>
      </trkpt>
      <trkpt lat="42.97509" lon="0.29663">
        <ele>1856</ele>
        <time>2021-12-07T09:55:13Z</time>
      </trkpt>
      <trkpt lat="42.97511" lon="0.29688">
        <ele>1854</ele>
        <time>2021-12-07T09:55:30Z</time>
      </trkpt>
      <trkpt lat="42.9751" lon="0.29689">
        <ele>1854</ele>
        <time>2021-12-07T09:55:31Z</time>
      </trkpt>
      <trkpt lat="42.97505" lon="0.297">
        <ele>1854</ele>
        <time>2021-12-07T09:55:48Z</time>
      </trkpt>
      <trkpt lat="42.97506" lon="0.29701">
        <ele>1853</ele>
        <time>2021-12-07T09:56:08Z</time>
      </trkpt>
      <trkpt lat="42.97503" lon="0.29699">
        <ele>1854</ele>
        <time>2021-12-07T09:56:35Z</time>
      </trkpt>
      <trkpt lat="42.97504" lon="0.297">
        <ele>1854</ele>
        <time>2021-12-07T09:56:43Z</time>
      </trkpt>
      <trkpt lat="42.97505" lon="0.29701">
        <ele>1853</ele>
        <time>2021-12-07T09:57:08Z</time>
      </trkpt>
      <trkpt lat="42.97504" lon="0.29703">
        <ele>1853</ele>
        <time>2021-12-07T09:57:27Z</time>
      </trkpt>
      <trkpt lat="42.97504" lon="0.29704">
        <ele>1853</ele>
        <time>2021-12-07T09:57:50Z</time>
      </trkpt>
      <trkpt lat="42.97507" lon="0.29701">
        <ele>1853</ele>
        <time>2021-12-07T09:58:03Z</time>
      </trkpt>
      <trkpt lat="42.97509" lon="0.29699">
        <ele>1853</ele>
        <time>2021-12-07T09:58:17Z</time>
      </trkpt>
      <trkpt lat="42.97513" lon="0.29707">
        <ele>1852</ele>
        <time>2021-12-07T09:58:29Z</time>
      </trkpt>
      <trkpt lat="42.97513" lon="0.29717">
        <ele>1851</ele>
        <time>2021-12-07T09:58:46Z</time>
      </trkpt>
      <trkpt lat="42.97513" lon="0.29744">
        <ele>1848</ele>
        <time>2021-12-07T09:59:03Z</time>
      </trkpt>
      <trkpt lat="42.97511" lon="0.29764">
        <ele>1845</ele>
        <time>2021-12-07T09:59:15Z</time>
      </trkpt>
      <trkpt lat="42.97513" lon="0.29787">
        <ele>1842</ele>
        <time>2021-12-07T09:59:32Z</time>
      </trkpt>
      <trkpt lat="42.97513" lon="0.29798">
        <ele>1840</ele>
        <time>2021-12-07T09:59:46Z</time>
      </trkpt>
      <trkpt lat="42.97514" lon="0.29817">
        <ele>1837</ele>
        <time>2021-12-07T09:59:56Z</time>
      </trkpt>
      <trkpt lat="42.97515" lon="0.29829">
        <ele>1836</ele>
        <time>2021-12-07T10:00:01Z</time>
      </trkpt>
      <trkpt lat="42.97514" lon="0.29843">
        <ele>1833</ele>
        <time>2021-12-07T10:00:13Z</time>
      </trkpt>
      <trkpt lat="42.97514" lon="0.29844">
        <ele>1833</ele>
        <time>2021-12-07T10:00:14Z</time>
      </trkpt>
      <trkpt lat="42.97516" lon="0.29857">
        <ele>1832</ele>
        <time>2021-12-07T10:00:21Z</time>
      </trkpt>
      <trkpt lat="42.9752" lon="0.29882">
        <ele>1830</ele>
        <time>2021-12-07T10:00:35Z</time>
      </trkpt>
      <trkpt lat="42.97522" lon="0.29903">
        <ele>1828</ele>
        <time>2021-12-07T10:00:47Z</time>
      </trkpt>
      <trkpt lat="42.97522" lon="0.29927">
        <ele>1826</ele>
        <time>2021-12-07T10:01:01Z</time>
      </trkpt>
      <trkpt lat="42.97522" lon="0.29929">
        <ele>1825</ele>
        <time>2021-12-07T10:01:02Z</time>
      </trkpt>
      <trkpt lat="42.97529" lon="0.29953">
        <ele>1826</ele>
        <time>2021-12-07T10:01:17Z</time>
      </trkpt>
      <trkpt lat="42.97533" lon="0.2997">
        <ele>1824</ele>
        <time>2021-12-07T10:01:30Z</time>
      </trkpt>
      <trkpt lat="42.97534" lon="0.29974">
        <ele>1823</ele>
        <time>2021-12-07T10:01:33Z</time>
      </trkpt>
      <trkpt lat="42.97534" lon="0.29993">
        <ele>1822</ele>
        <time>2021-12-07T10:01:46Z</time>
      </trkpt>
      <trkpt lat="42.97534" lon="0.29995">
        <ele>1822</ele>
        <time>2021-12-07T10:01:47Z</time>
      </trkpt>
      <trkpt lat="42.97527" lon="0.30001">
        <ele>1820</ele>
        <time>2021-12-07T10:02:00Z</time>
      </trkpt>
      <trkpt lat="42.97526" lon="0.30001">
        <ele>1819</ele>
        <time>2021-12-07T10:02:02Z</time>
      </trkpt>
      <trkpt lat="42.97521" lon="0.3">
        <ele>1816</ele>
        <time>2021-12-07T10:02:15Z</time>
      </trkpt>
      <trkpt lat="42.97521" lon="0.30003">
        <ele>1816</ele>
        <time>2021-12-07T10:02:43Z</time>
      </trkpt>
      <trkpt lat="42.97526" lon="0.30001">
        <ele>1819</ele>
        <time>2021-12-07T10:02:58Z</time>
      </trkpt>
      <trkpt lat="42.97527" lon="0.30002">
        <ele>1819</ele>
        <time>2021-12-07T10:03:01Z</time>
      </trkpt>
      <trkpt lat="42.97535" lon="0.30022">
        <ele>1819</ele>
        <time>2021-12-07T10:03:14Z</time>
      </trkpt>
      <trkpt lat="42.97539" lon="0.30033">
        <ele>1820</ele>
        <time>2021-12-07T10:03:21Z</time>
      </trkpt>
      <trkpt lat="42.9754" lon="0.30037">
        <ele>1821</ele>
        <time>2021-12-07T10:03:24Z</time>
      </trkpt>
      <trkpt lat="42.97544" lon="0.30046">
        <ele>1823</ele>
        <time>2021-12-07T10:03:31Z</time>
      </trkpt>
      <trkpt lat="42.97544" lon="0.30048">
        <ele>1823</ele>
        <time>2021-12-07T10:03:33Z</time>
      </trkpt>
      <trkpt lat="42.97547" lon="0.30061">
        <ele>1825</ele>
        <time>2021-12-07T10:03:47Z</time>
      </trkpt>
      <trkpt lat="42.97549" lon="0.30069">
        <ele>1827</ele>
        <time>2021-12-07T10:03:55Z</time>
      </trkpt>
      <trkpt lat="42.97553" lon="0.3008">
        <ele>1830</ele>
        <time>2021-12-07T10:04:09Z</time>
      </trkpt>
      <trkpt lat="42.97557" lon="0.30091">
        <ele>1833</ele>
        <time>2021-12-07T10:04:23Z</time>
      </trkpt>
      <trkpt lat="42.97558" lon="0.30094">
        <ele>1834</ele>
        <time>2021-12-07T10:04:27Z</time>
      </trkpt>
      <trkpt lat="42.9756" lon="0.30096">
        <ele>1834</ele>
        <time>2021-12-07T10:04:29Z</time>
      </trkpt>
      <trkpt lat="42.97562" lon="0.30106">
        <ele>1836</ele>
        <time>2021-12-07T10:04:42Z</time>
      </trkpt>
      <trkpt lat="42.97564" lon="0.30117">
        <ele>1838</ele>
        <time>2021-12-07T10:04:55Z</time>
      </trkpt>
      <trkpt lat="42.97565" lon="0.30117">
        <ele>1839</ele>
        <time>2021-12-07T10:05:02Z</time>
      </trkpt>
      <trkpt lat="42.97571" lon="0.30118">
        <ele>1841</ele>
        <time>2021-12-07T10:05:13Z</time>
      </trkpt>
      <trkpt lat="42.97574" lon="0.30129">
        <ele>1844</ele>
        <time>2021-12-07T10:05:29Z</time>
      </trkpt>
      <trkpt lat="42.97579" lon="0.30135">
        <ele>1848</ele>
        <time>2021-12-07T10:05:42Z</time>
      </trkpt>
      <trkpt lat="42.9758" lon="0.30145">
        <ele>1850</ele>
        <time>2021-12-07T10:05:55Z</time>
      </trkpt>
      <trkpt lat="42.97582" lon="0.30152">
        <ele>1851</ele>
        <time>2021-12-07T10:06:06Z</time>
      </trkpt>
      <trkpt lat="42.97585" lon="0.30162">
        <ele>1853</ele>
        <time>2021-12-07T10:06:18Z</time>
      </trkpt>
      <trkpt lat="42.97588" lon="0.30174">
        <ele>1853</ele>
        <time>2021-12-07T10:06:33Z</time>
      </trkpt>
      <trkpt lat="42.97584" lon="0.30181">
        <ele>1852</ele>
        <time>2021-12-07T10:06:46Z</time>
      </trkpt>
      <trkpt lat="42.97584" lon="0.30187">
        <ele>1851</ele>
        <time>2021-12-07T10:07:02Z</time>
      </trkpt>
      <trkpt lat="42.97584" lon="0.30186">
        <ele>1851</ele>
        <time>2021-12-07T10:07:18Z</time>
      </trkpt>
      <trkpt lat="42.97579" lon="0.30176">
        <ele>1849</ele>
        <time>2021-12-07T10:07:30Z</time>
      </trkpt>
      <trkpt lat="42.97576" lon="0.30166">
        <ele>1848</ele>
        <time>2021-12-07T10:07:43Z</time>
      </trkpt>
      <trkpt lat="42.97574" lon="0.30163">
        <ele>1847</ele>
        <time>2021-12-07T10:07:55Z</time>
      </trkpt>
      <trkpt lat="42.9758" lon="0.30164">
        <ele>1851</ele>
        <time>2021-12-07T10:08:15Z</time>
      </trkpt>
      <trkpt lat="42.97579" lon="0.30171">
        <ele>1850</ele>
        <time>2021-12-07T10:08:31Z</time>
      </trkpt>
      <trkpt lat="42.9758" lon="0.30175">
        <ele>1850</ele>
        <time>2021-12-07T10:08:50Z</time>
      </trkpt>
      <trkpt lat="42.97581" lon="0.30169">
        <ele>1851</ele>
        <time>2021-12-07T10:09:11Z</time>
      </trkpt>
      <trkpt lat="42.97582" lon="0.30174">
        <ele>1851</ele>
        <time>2021-12-07T10:09:25Z</time>
      </trkpt>
      <trkpt lat="42.97586" lon="0.30177">
        <ele>1852</ele>
        <time>2021-12-07T10:09:38Z</time>
      </trkpt>
      <trkpt lat="42.97587" lon="0.30179">
        <ele>1853</ele>
        <time>2021-12-07T10:09:40Z</time>
      </trkpt>
      <trkpt lat="42.97593" lon="0.30188">
        <ele>1854</ele>
        <time>2021-12-07T10:09:52Z</time>
      </trkpt>
      <trkpt lat="42.97598" lon="0.3019">
        <ele>1856</ele>
        <time>2021-12-07T10:09:59Z</time>
      </trkpt>
      <trkpt lat="42.97605" lon="0.30189">
        <ele>1859</ele>
        <time>2021-12-07T10:10:07Z</time>
      </trkpt>
      <trkpt lat="42.97614" lon="0.30197">
        <ele>1862</ele>
        <time>2021-12-07T10:10:21Z</time>
      </trkpt>
      <trkpt lat="42.97621" lon="0.30206">
        <ele>1864</ele>
        <time>2021-12-07T10:10:35Z</time>
      </trkpt>
      <trkpt lat="42.97631" lon="0.30215">
        <ele>1868</ele>
        <time>2021-12-07T10:10:54Z</time>
      </trkpt>
      <trkpt lat="42.97638" lon="0.30225">
        <ele>1871</ele>
        <time>2021-12-07T10:11:08Z</time>
      </trkpt>
      <trkpt lat="42.97643" lon="0.30226">
        <ele>1873</ele>
        <time>2021-12-07T10:11:25Z</time>
      </trkpt>
      <trkpt lat="42.97647" lon="0.3023">
        <ele>1874</ele>
        <time>2021-12-07T10:11:36Z</time>
      </trkpt>
      <trkpt lat="42.9765" lon="0.30237">
        <ele>1876</ele>
        <time>2021-12-07T10:11:48Z</time>
      </trkpt>
      <trkpt lat="42.9765" lon="0.30242">
        <ele>1876</ele>
        <time>2021-12-07T10:12:02Z</time>
      </trkpt>
      <trkpt lat="42.9765" lon="0.30244">
        <ele>1876</ele>
        <time>2021-12-07T10:12:13Z</time>
      </trkpt>
      <trkpt lat="42.97652" lon="0.30244">
        <ele>1877</ele>
        <time>2021-12-07T10:12:20Z</time>
      </trkpt>
      <trkpt lat="42.97655" lon="0.30243">
        <ele>1878</ele>
        <time>2021-12-07T10:12:47Z</time>
      </trkpt>
      <trkpt lat="42.97658" lon="0.30241">
        <ele>1879</ele>
        <time>2021-12-07T10:13:01Z</time>
      </trkpt>
      <trkpt lat="42.97662" lon="0.30245">
        <ele>1882</ele>
        <time>2021-12-07T10:13:11Z</time>
      </trkpt>
      <trkpt lat="42.97662" lon="0.30252">
        <ele>1883</ele>
        <time>2021-12-07T10:13:22Z</time>
      </trkpt>
      <trkpt lat="42.97664" lon="0.30256">
        <ele>1884</ele>
        <time>2021-12-07T10:13:34Z</time>
      </trkpt>
      <trkpt lat="42.97665" lon="0.30258">
        <ele>1884</ele>
        <time>2021-12-07T10:13:50Z</time>
      </trkpt>
      <trkpt lat="42.97666" lon="0.30264">
        <ele>1886</ele>
        <time>2021-12-07T10:13:59Z</time>
      </trkpt>
      <trkpt lat="42.97667" lon="0.30265">
        <ele>1886</ele>
        <time>2021-12-07T10:14:00Z</time>
      </trkpt>
      <trkpt lat="42.97668" lon="0.30269">
        <ele>1887</ele>
        <time>2021-12-07T10:14:14Z</time>
      </trkpt>
      <trkpt lat="42.97672" lon="0.3027">
        <ele>1888</ele>
        <time>2021-12-07T10:14:28Z</time>
      </trkpt>
      <trkpt lat="42.97678" lon="0.30276">
        <ele>1890</ele>
        <time>2021-12-07T10:14:40Z</time>
      </trkpt>
      <trkpt lat="42.9768" lon="0.3028">
        <ele>1891</ele>
        <time>2021-12-07T10:14:49Z</time>
      </trkpt>
      <trkpt lat="42.97689" lon="0.30288">
        <ele>1894</ele>
        <time>2021-12-07T10:15:01Z</time>
      </trkpt>
      <trkpt lat="42.97694" lon="0.30298">
        <ele>1898</ele>
        <time>2021-12-07T10:15:15Z</time>
      </trkpt>
      <trkpt lat="42.97699" lon="0.30309">
        <ele>1900</ele>
        <time>2021-12-07T10:15:30Z</time>
      </trkpt>
      <trkpt lat="42.97701" lon="0.30317">
        <ele>1902</ele>
        <time>2021-12-07T10:15:40Z</time>
      </trkpt>
      <trkpt lat="42.97703" lon="0.30328">
        <ele>1904</ele>
        <time>2021-12-07T10:15:56Z</time>
      </trkpt>
      <trkpt lat="42.97708" lon="0.3034">
        <ele>1906</ele>
        <time>2021-12-07T10:16:12Z</time>
      </trkpt>
      <trkpt lat="42.97712" lon="0.3035">
        <ele>1909</ele>
        <time>2021-12-07T10:16:24Z</time>
      </trkpt>
      <trkpt lat="42.97712" lon="0.30361">
        <ele>1910</ele>
        <time>2021-12-07T10:16:37Z</time>
      </trkpt>
      <trkpt lat="42.97712" lon="0.30367">
        <ele>1911</ele>
        <time>2021-12-07T10:16:50Z</time>
      </trkpt>
      <trkpt lat="42.97718" lon="0.30364">
        <ele>1912</ele>
        <time>2021-12-07T10:17:04Z</time>
      </trkpt>
      <trkpt lat="42.97719" lon="0.30364">
        <ele>1912</ele>
        <time>2021-12-07T10:17:18Z</time>
      </trkpt>
      <trkpt lat="42.97717" lon="0.30365">
        <ele>1912</ele>
        <time>2021-12-07T10:17:48Z</time>
      </trkpt>
      <trkpt lat="42.97716" lon="0.30363">
        <ele>1912</ele>
        <time>2021-12-07T10:18:07Z</time>
      </trkpt>
      <trkpt lat="42.97715" lon="0.30363">
        <ele>1911</ele>
        <time>2021-12-07T10:18:13Z</time>
      </trkpt>
      <trkpt lat="42.97718" lon="0.30367">
        <ele>1912</ele>
        <time>2021-12-07T10:18:25Z</time>
      </trkpt>
      <trkpt lat="42.97716" lon="0.30367">
        <ele>1912</ele>
        <time>2021-12-07T10:18:53Z</time>
      </trkpt>
      <trkpt lat="42.97717" lon="0.30366">
        <ele>1912</ele>
        <time>2021-12-07T10:19:24Z</time>
      </trkpt>
      <trkpt lat="42.97716" lon="0.30369">
        <ele>1912</ele>
        <time>2021-12-07T10:20:03Z</time>
      </trkpt>
      <trkpt lat="42.97718" lon="0.30366">
        <ele>1912</ele>
        <time>2021-12-07T10:20:26Z</time>
      </trkpt>
      <trkpt lat="42.97719" lon="0.30364">
        <ele>1912</ele>
        <time>2021-12-07T10:20:56Z</time>
      </trkpt>
      <trkpt lat="42.97718" lon="0.30365">
        <ele>1912</ele>
        <time>2021-12-07T10:21:30Z</time>
      </trkpt>
      <trkpt lat="42.97718" lon="0.30366">
        <ele>1912</ele>
        <time>2021-12-07T10:21:54Z</time>
      </trkpt>
      <trkpt lat="42.97718" lon="0.30366">
        <ele>1913</ele>
        <time>2021-12-07T10:22:21Z</time>
      </trkpt>
      <trkpt lat="42.97718" lon="0.30366">
        <ele>1912</ele>
        <time>2021-12-07T10:22:25Z</time>
      </trkpt>
      <trkpt lat="42.97719" lon="0.30365">
        <ele>1913</ele>
        <time>2021-12-07T10:23:01Z</time>
      </trkpt>
      <trkpt lat="42.97719" lon="0.30366">
        <ele>1913</ele>
        <time>2021-12-07T10:23:30Z</time>
      </trkpt>
      <trkpt lat="42.97719" lon="0.30366">
        <ele>1913</ele>
        <time>2021-12-07T10:24:04Z</time>
      </trkpt>
      <trkpt lat="42.97719" lon="0.30367">
        <ele>1913</ele>
        <time>2021-12-07T10:24:26Z</time>
      </trkpt>
      <trkpt lat="42.97722" lon="0.30367">
        <ele>1913</ele>
        <time>2021-12-07T10:24:51Z</time>
      </trkpt>
      <trkpt lat="42.97718" lon="0.30371">
        <ele>1913</ele>
        <time>2021-12-07T10:25:13Z</time>
      </trkpt>
      <trkpt lat="42.97716" lon="0.30372">
        <ele>1913</ele>
        <time>2021-12-07T10:25:36Z</time>
      </trkpt>
      <trkpt lat="42.97718" lon="0.3037">
        <ele>1913</ele>
        <time>2021-12-07T10:25:57Z</time>
      </trkpt>
      <trkpt lat="42.97716" lon="0.30367">
        <ele>1912</ele>
        <time>2021-12-07T10:26:08Z</time>
      </trkpt>
      <trkpt lat="42.97717" lon="0.30366">
        <ele>1912</ele>
        <time>2021-12-07T10:26:29Z</time>
      </trkpt>
      <trkpt lat="42.97717" lon="0.30366">
        <ele>1912</ele>
        <time>2021-12-07T10:26:36Z</time>
      </trkpt>
      <trkpt lat="42.97716" lon="0.30365">
        <ele>1912</ele>
        <time>2021-12-07T10:26:56Z</time>
      </trkpt>
      <trkpt lat="42.97717" lon="0.30367">
        <ele>1912</ele>
        <time>2021-12-07T10:27:17Z</time>
      </trkpt>
      <trkpt lat="42.97716" lon="0.30368">
        <ele>1912</ele>
        <time>2021-12-07T10:27:40Z</time>
      </trkpt>
      <trkpt lat="42.97715" lon="0.30363">
        <ele>1911</ele>
        <time>2021-12-07T10:27:55Z</time>
      </trkpt>
      <trkpt lat="42.97713" lon="0.30362">
        <ele>1911</ele>
        <time>2021-12-07T10:28:17Z</time>
      </trkpt>
      <trkpt lat="42.97711" lon="0.30363">
        <ele>1910</ele>
        <time>2021-12-07T10:28:35Z</time>
      </trkpt>
      <trkpt lat="42.97712" lon="0.30359">
        <ele>1910</ele>
        <time>2021-12-07T10:28:57Z</time>
      </trkpt>
      <trkpt lat="42.97717" lon="0.30363">
        <ele>1912</ele>
        <time>2021-12-07T10:29:28Z</time>
      </trkpt>
      <trkpt lat="42.97715" lon="0.30359">
        <ele>1911</ele>
        <time>2021-12-07T10:30:01Z</time>
      </trkpt>
      <trkpt lat="42.97713" lon="0.30358">
        <ele>1910</ele>
        <time>2021-12-07T10:30:07Z</time>
      </trkpt>
      <trkpt lat="42.9771" lon="0.30356">
        <ele>1909</ele>
        <time>2021-12-07T10:30:12Z</time>
      </trkpt>
      <trkpt lat="42.97713" lon="0.30347">
        <ele>1908</ele>
        <time>2021-12-07T10:30:17Z</time>
      </trkpt>
      <trkpt lat="42.97708" lon="0.3033">
        <ele>1905</ele>
        <time>2021-12-07T10:30:24Z</time>
      </trkpt>
      <trkpt lat="42.97708" lon="0.30328">
        <ele>1904</ele>
        <time>2021-12-07T10:30:25Z</time>
      </trkpt>
      <trkpt lat="42.97707" lon="0.30316">
        <ele>1902</ele>
        <time>2021-12-07T10:30:30Z</time>
      </trkpt>
      <trkpt lat="42.97706" lon="0.30314">
        <ele>1901</ele>
        <time>2021-12-07T10:30:31Z</time>
      </trkpt>
      <trkpt lat="42.97704" lon="0.30309">
        <ele>1900</ele>
        <time>2021-12-07T10:30:34Z</time>
      </trkpt>
      <trkpt lat="42.97704" lon="0.30306">
        <ele>1900</ele>
        <time>2021-12-07T10:30:36Z</time>
      </trkpt>
      <trkpt lat="42.97708" lon="0.30299">
        <ele>1898</ele>
        <time>2021-12-07T10:30:42Z</time>
      </trkpt>
      <trkpt lat="42.97704" lon="0.30291">
        <ele>1896</ele>
        <time>2021-12-07T10:30:49Z</time>
      </trkpt>
      <trkpt lat="42.97702" lon="0.30282">
        <ele>1894</ele>
        <time>2021-12-07T10:30:53Z</time>
      </trkpt>
      <trkpt lat="42.97698" lon="0.30275">
        <ele>1893</ele>
        <time>2021-12-07T10:30:57Z</time>
      </trkpt>
      <trkpt lat="42.97692" lon="0.30263">
        <ele>1889</ele>
        <time>2021-12-07T10:31:09Z</time>
      </trkpt>
      <trkpt lat="42.97692" lon="0.30263">
        <ele>1889</ele>
        <time>2021-12-07T10:31:10Z</time>
      </trkpt>
      <trkpt lat="42.97683" lon="0.30251">
        <ele>1886</ele>
        <time>2021-12-07T10:31:16Z</time>
      </trkpt>
      <trkpt lat="42.97682" lon="0.30248">
        <ele>1885</ele>
        <time>2021-12-07T10:31:19Z</time>
      </trkpt>
      <trkpt lat="42.9768" lon="0.30236">
        <ele>1882</ele>
        <time>2021-12-07T10:31:26Z</time>
      </trkpt>
      <trkpt lat="42.97682" lon="0.30234">
        <ele>1881</ele>
        <time>2021-12-07T10:31:27Z</time>
      </trkpt>
      <trkpt lat="42.97678" lon="0.30221">
        <ele>1878</ele>
        <time>2021-12-07T10:31:34Z</time>
      </trkpt>
      <trkpt lat="42.97676" lon="0.30213">
        <ele>1876</ele>
        <time>2021-12-07T10:31:39Z</time>
      </trkpt>
      <trkpt lat="42.97671" lon="0.30209">
        <ele>1876</ele>
        <time>2021-12-07T10:31:46Z</time>
      </trkpt>
      <trkpt lat="42.97665" lon="0.30208">
        <ele>1875</ele>
        <time>2021-12-07T10:31:50Z</time>
      </trkpt>
      <trkpt lat="42.97643" lon="0.30212">
        <ele>1871</ele>
        <time>2021-12-07T10:32:02Z</time>
      </trkpt>
      <trkpt lat="42.97637" lon="0.30214">
        <ele>1870</ele>
        <time>2021-12-07T10:32:09Z</time>
      </trkpt>
      <trkpt lat="42.97633" lon="0.30207">
        <ele>1867</ele>
        <time>2021-12-07T10:32:13Z</time>
      </trkpt>
      <trkpt lat="42.97627" lon="0.302">
        <ele>1865</ele>
        <time>2021-12-07T10:32:17Z</time>
      </trkpt>
      <trkpt lat="42.97627" lon="0.30198">
        <ele>1865</ele>
        <time>2021-12-07T10:32:18Z</time>
      </trkpt>
      <trkpt lat="42.97629" lon="0.30193">
        <ele>1865</ele>
        <time>2021-12-07T10:32:20Z</time>
      </trkpt>
      <trkpt lat="42.97622" lon="0.30185">
        <ele>1862</ele>
        <time>2021-12-07T10:32:26Z</time>
      </trkpt>
      <trkpt lat="42.97618" lon="0.30181">
        <ele>1861</ele>
        <time>2021-12-07T10:32:28Z</time>
      </trkpt>
      <trkpt lat="42.97616" lon="0.30171">
        <ele>1859</ele>
        <time>2021-12-07T10:32:32Z</time>
      </trkpt>
      <trkpt lat="42.97617" lon="0.30167">
        <ele>1859</ele>
        <time>2021-12-07T10:32:33Z</time>
      </trkpt>
      <trkpt lat="42.97614" lon="0.30154">
        <ele>1856</ele>
        <time>2021-12-07T10:32:38Z</time>
      </trkpt>
      <trkpt lat="42.97618" lon="0.30135">
        <ele>1853</ele>
        <time>2021-12-07T10:32:45Z</time>
      </trkpt>
      <trkpt lat="42.9762" lon="0.30134">
        <ele>1853</ele>
        <time>2021-12-07T10:32:49Z</time>
      </trkpt>
      <trkpt lat="42.9762" lon="0.30132">
        <ele>1852</ele>
        <time>2021-12-07T10:32:56Z</time>
      </trkpt>
      <trkpt lat="42.97618" lon="0.30127">
        <ele>1851</ele>
        <time>2021-12-07T10:33:00Z</time>
      </trkpt>
      <trkpt lat="42.97612" lon="0.30123">
        <ele>1851</ele>
        <time>2021-12-07T10:33:06Z</time>
      </trkpt>
      <trkpt lat="42.97616" lon="0.30118">
        <ele>1849</ele>
        <time>2021-12-07T10:33:10Z</time>
      </trkpt>
      <trkpt lat="42.97619" lon="0.30117">
        <ele>1849</ele>
        <time>2021-12-07T10:33:12Z</time>
      </trkpt>
      <trkpt lat="42.97616" lon="0.30109">
        <ele>1847</ele>
        <time>2021-12-07T10:33:21Z</time>
      </trkpt>
      <trkpt lat="42.97617" lon="0.30102">
        <ele>1845</ele>
        <time>2021-12-07T10:33:23Z</time>
      </trkpt>
      <trkpt lat="42.97612" lon="0.30093">
        <ele>1843</ele>
        <time>2021-12-07T10:33:27Z</time>
      </trkpt>
      <trkpt lat="42.97595" lon="0.30079">
        <ele>1838</ele>
        <time>2021-12-07T10:33:38Z</time>
      </trkpt>
      <trkpt lat="42.97584" lon="0.30064">
        <ele>1834</ele>
        <time>2021-12-07T10:33:45Z</time>
      </trkpt>
      <trkpt lat="42.97583" lon="0.30063">
        <ele>1834</ele>
        <time>2021-12-07T10:33:55Z</time>
      </trkpt>
      <trkpt lat="42.97583" lon="0.30056">
        <ele>1832</ele>
        <time>2021-12-07T10:33:59Z</time>
      </trkpt>
      <trkpt lat="42.97576" lon="0.30043">
        <ele>1829</ele>
        <time>2021-12-07T10:34:04Z</time>
      </trkpt>
      <trkpt lat="42.9757" lon="0.30032">
        <ele>1827</ele>
        <time>2021-12-07T10:34:06Z</time>
      </trkpt>
      <trkpt lat="42.97549" lon="0.29989">
        <ele>1824</ele>
        <time>2021-12-07T10:34:14Z</time>
      </trkpt>
      <trkpt lat="42.9755" lon="0.29988">
        <ele>1824</ele>
        <time>2021-12-07T10:34:23Z</time>
      </trkpt>
      <trkpt lat="42.97551" lon="0.29982">
        <ele>1824</ele>
        <time>2021-12-07T10:34:37Z</time>
      </trkpt>
      <trkpt lat="42.97549" lon="0.29976">
        <ele>1824</ele>
        <time>2021-12-07T10:34:47Z</time>
      </trkpt>
      <trkpt lat="42.97547" lon="0.29969">
        <ele>1824</ele>
        <time>2021-12-07T10:35:00Z</time>
      </trkpt>
      <trkpt lat="42.97544" lon="0.29958">
        <ele>1825</ele>
        <time>2021-12-07T10:35:13Z</time>
      </trkpt>
      <trkpt lat="42.97541" lon="0.29948">
        <ele>1825</ele>
        <time>2021-12-07T10:35:27Z</time>
      </trkpt>
      <trkpt lat="42.97538" lon="0.29942">
        <ele>1826</ele>
        <time>2021-12-07T10:35:40Z</time>
      </trkpt>
      <trkpt lat="42.97535" lon="0.29936">
        <ele>1827</ele>
        <time>2021-12-07T10:35:52Z</time>
      </trkpt>
      <trkpt lat="42.97534" lon="0.29929">
        <ele>1828</ele>
        <time>2021-12-07T10:36:05Z</time>
      </trkpt>
      <trkpt lat="42.97531" lon="0.29922">
        <ele>1829</ele>
        <time>2021-12-07T10:36:17Z</time>
      </trkpt>
      <trkpt lat="42.97529" lon="0.29917">
        <ele>1830</ele>
        <time>2021-12-07T10:36:28Z</time>
      </trkpt>
      <trkpt lat="42.97529" lon="0.29918">
        <ele>1830</ele>
        <time>2021-12-07T10:36:45Z</time>
      </trkpt>
      <trkpt lat="42.97529" lon="0.29918">
        <ele>1830</ele>
        <time>2021-12-07T10:37:05Z</time>
      </trkpt>
      <trkpt lat="42.97525" lon="0.29906">
        <ele>1830</ele>
        <time>2021-12-07T10:37:20Z</time>
      </trkpt>
      <trkpt lat="42.97523" lon="0.29893">
        <ele>1830</ele>
        <time>2021-12-07T10:37:33Z</time>
      </trkpt>
      <trkpt lat="42.97523" lon="0.29892">
        <ele>1830</ele>
        <time>2021-12-07T10:37:34Z</time>
      </trkpt>
      <trkpt lat="42.97523" lon="0.29877">
        <ele>1831</ele>
        <time>2021-12-07T10:37:50Z</time>
      </trkpt>
      <trkpt lat="42.97522" lon="0.29871">
        <ele>1832</ele>
        <time>2021-12-07T10:38:01Z</time>
      </trkpt>
      <trkpt lat="42.9752" lon="0.29859">
        <ele>1833</ele>
        <time>2021-12-07T10:38:16Z</time>
      </trkpt>
      <trkpt lat="42.9752" lon="0.2985">
        <ele>1834</ele>
        <time>2021-12-07T10:38:27Z</time>
      </trkpt>
      <trkpt lat="42.97521" lon="0.29836">
        <ele>1836</ele>
        <time>2021-12-07T10:38:43Z</time>
      </trkpt>
      <trkpt lat="42.9752" lon="0.29835">
        <ele>1836</ele>
        <time>2021-12-07T10:38:58Z</time>
      </trkpt>
      <trkpt lat="42.9752" lon="0.29827">
        <ele>1837</ele>
        <time>2021-12-07T10:39:07Z</time>
      </trkpt>
      <trkpt lat="42.97519" lon="0.29816">
        <ele>1838</ele>
        <time>2021-12-07T10:39:23Z</time>
      </trkpt>
      <trkpt lat="42.9752" lon="0.29809">
        <ele>1839</ele>
        <time>2021-12-07T10:39:31Z</time>
      </trkpt>
      <trkpt lat="42.97518" lon="0.29797">
        <ele>1841</ele>
        <time>2021-12-07T10:39:49Z</time>
      </trkpt>
      <trkpt lat="42.97518" lon="0.29797">
        <ele>1841</ele>
        <time>2021-12-07T10:39:57Z</time>
      </trkpt>
      <trkpt lat="42.97516" lon="0.29789">
        <ele>1842</ele>
        <time>2021-12-07T10:40:17Z</time>
      </trkpt>
      <trkpt lat="42.97514" lon="0.29785">
        <ele>1842</ele>
        <time>2021-12-07T10:40:25Z</time>
      </trkpt>
      <trkpt lat="42.97515" lon="0.29768">
        <ele>1845</ele>
        <time>2021-12-07T10:40:43Z</time>
      </trkpt>
      <trkpt lat="42.97514" lon="0.29762">
        <ele>1845</ele>
        <time>2021-12-07T10:40:49Z</time>
      </trkpt>
      <trkpt lat="42.97513" lon="0.29747">
        <ele>1847</ele>
        <time>2021-12-07T10:41:06Z</time>
      </trkpt>
      <trkpt lat="42.97513" lon="0.29742">
        <ele>1848</ele>
        <time>2021-12-07T10:41:11Z</time>
      </trkpt>
      <trkpt lat="42.97514" lon="0.29735">
        <ele>1849</ele>
        <time>2021-12-07T10:41:18Z</time>
      </trkpt>
      <trkpt lat="42.97514" lon="0.29726">
        <ele>1850</ele>
        <time>2021-12-07T10:41:27Z</time>
      </trkpt>
      <trkpt lat="42.97509" lon="0.29715">
        <ele>1851</ele>
        <time>2021-12-07T10:41:41Z</time>
      </trkpt>
      <trkpt lat="42.97509" lon="0.29712">
        <ele>1852</ele>
        <time>2021-12-07T10:41:47Z</time>
      </trkpt>
      <trkpt lat="42.97507" lon="0.2969">
        <ele>1854</ele>
        <time>2021-12-07T10:42:04Z</time>
      </trkpt>
      <trkpt lat="42.97507" lon="0.29687">
        <ele>1855</ele>
        <time>2021-12-07T10:42:06Z</time>
      </trkpt>
      <trkpt lat="42.97501" lon="0.29675">
        <ele>1857</ele>
        <time>2021-12-07T10:42:17Z</time>
      </trkpt>
      <trkpt lat="42.975" lon="0.29668">
        <ele>1858</ele>
        <time>2021-12-07T10:42:23Z</time>
      </trkpt>
      <trkpt lat="42.97501" lon="0.29662">
        <ele>1858</ele>
        <time>2021-12-07T10:42:28Z</time>
      </trkpt>
      <trkpt lat="42.97499" lon="0.29651">
        <ele>1858</ele>
        <time>2021-12-07T10:42:45Z</time>
      </trkpt>
      <trkpt lat="42.97497" lon="0.29637">
        <ele>1859</ele>
        <time>2021-12-07T10:42:59Z</time>
      </trkpt>
      <trkpt lat="42.97495" lon="0.29629">
        <ele>1859</ele>
        <time>2021-12-07T10:43:06Z</time>
      </trkpt>
      <trkpt lat="42.97491" lon="0.29617">
        <ele>1859</ele>
        <time>2021-12-07T10:43:21Z</time>
      </trkpt>
      <trkpt lat="42.9749" lon="0.29616">
        <ele>1859</ele>
        <time>2021-12-07T10:43:23Z</time>
      </trkpt>
      <trkpt lat="42.9749" lon="0.29615">
        <ele>1859</ele>
        <time>2021-12-07T10:43:34Z</time>
      </trkpt>
      <trkpt lat="42.9749" lon="0.29615">
        <ele>1859</ele>
        <time>2021-12-07T10:43:35Z</time>
      </trkpt>
      <trkpt lat="42.97487" lon="0.29616">
        <ele>1858</ele>
        <time>2021-12-07T10:43:49Z</time>
      </trkpt>
      <trkpt lat="42.97481" lon="0.29617">
        <ele>1856</ele>
        <time>2021-12-07T10:44:03Z</time>
      </trkpt>
      <trkpt lat="42.97474" lon="0.29618">
        <ele>1855</ele>
        <time>2021-12-07T10:44:13Z</time>
      </trkpt>
      <trkpt lat="42.97472" lon="0.2962">
        <ele>1854</ele>
        <time>2021-12-07T10:44:23Z</time>
      </trkpt>
      <trkpt lat="42.97473" lon="0.29618">
        <ele>1854</ele>
        <time>2021-12-07T10:44:34Z</time>
      </trkpt>
      <trkpt lat="42.97473" lon="0.2962">
        <ele>1854</ele>
        <time>2021-12-07T10:44:47Z</time>
      </trkpt>
      <trkpt lat="42.97473" lon="0.2962">
        <ele>1854</ele>
        <time>2021-12-07T10:44:48Z</time>
      </trkpt>
      <trkpt lat="42.97472" lon="0.29619">
        <ele>1854</ele>
        <time>2021-12-07T10:45:04Z</time>
      </trkpt>
      <trkpt lat="42.97471" lon="0.2962">
        <ele>1854</ele>
        <time>2021-12-07T10:45:13Z</time>
      </trkpt>
      <trkpt lat="42.97472" lon="0.2962">
        <ele>1854</ele>
        <time>2021-12-07T10:45:16Z</time>
      </trkpt>
      <trkpt lat="42.97472" lon="0.29621">
        <ele>1854</ele>
        <time>2021-12-07T10:45:25Z</time>
      </trkpt>
      <trkpt lat="42.97472" lon="0.29621">
        <ele>1853</ele>
        <time>2021-12-07T10:45:26Z</time>
      </trkpt>
      <trkpt lat="42.97472" lon="0.29619">
        <ele>1854</ele>
        <time>2021-12-07T10:45:48Z</time>
      </trkpt>
      <trkpt lat="42.97472" lon="0.29621">
        <ele>1854</ele>
        <time>2021-12-07T10:46:07Z</time>
      </trkpt>
      <trkpt lat="42.97472" lon="0.29621">
        <ele>1853</ele>
        <time>2021-12-07T10:46:10Z</time>
      </trkpt>
      <trkpt lat="42.97472" lon="0.29621">
        <ele>1853</ele>
        <time>2021-12-07T10:46:16Z</time>
      </trkpt>
      <trkpt lat="42.97472" lon="0.2962">
        <ele>1854</ele>
        <time>2021-12-07T10:46:20Z</time>
      </trkpt>
      <trkpt lat="42.97472" lon="0.2962">
        <ele>1854</ele>
        <time>2021-12-07T10:46:21Z</time>
      </trkpt>
      <trkpt lat="42.97472" lon="0.2962">
        <ele>1854</ele>
        <time>2021-12-07T10:46:25Z</time>
      </trkpt>
      <trkpt lat="42.97472" lon="0.2962">
        <ele>1854</ele>
        <time>2021-12-07T10:46:27Z</time>
      </trkpt>
      <trkpt lat="42.97472" lon="0.2962">
        <ele>1854</ele>
        <time>2021-12-07T10:46:28Z</time>
      </trkpt>
      <trkpt lat="42.97472" lon="0.29622">
        <ele>1853</ele>
        <time>2021-12-07T10:46:30Z</time>
      </trkpt>
      <trkpt lat="42.97472" lon="0.29622">
        <ele>1853</ele>
        <time>2021-12-07T10:46:33Z</time>
      </trkpt>
      <trkpt lat="42.97472" lon="0.29622">
        <ele>1853</ele>
        <time>2021-12-07T10:46:40Z</time>
      </trkpt>
      <trkpt lat="42.97472" lon="0.29622">
        <ele>1853</ele>
        <time>2021-12-07T10:46:41Z</time>
      </trkpt>
      <trkpt lat="42.97473" lon="0.29628">
        <ele>1852</ele>
        <time>2021-12-07T10:46:56Z</time>
      </trkpt>
      <trkpt lat="42.97472" lon="0.29629">
        <ele>1851</ele>
        <time>2021-12-07T10:46:59Z</time>
      </trkpt>
      <trkpt lat="42.97472" lon="0.29631">
        <ele>1851</ele>
        <time>2021-12-07T10:47:02Z</time>
      </trkpt>
      <trkpt lat="42.97462" lon="0.29642">
        <ele>1845</ele>
        <time>2021-12-07T10:47:08Z</time>
      </trkpt>
      <trkpt lat="42.97458" lon="0.29644">
        <ele>1843</ele>
        <time>2021-12-07T10:47:18Z</time>
      </trkpt>
      <trkpt lat="42.9745" lon="0.2965">
        <ele>1838</ele>
        <time>2021-12-07T10:47:22Z</time>
      </trkpt>
      <trkpt lat="42.97439" lon="0.29654">
        <ele>1833</ele>
        <time>2021-12-07T10:47:25Z</time>
      </trkpt>
      <trkpt lat="42.97436" lon="0.29654">
        <ele>1832</ele>
        <time>2021-12-07T10:47:26Z</time>
      </trkpt>
      <trkpt lat="42.97425" lon="0.29654">
        <ele>1829</ele>
        <time>2021-12-07T10:47:30Z</time>
      </trkpt>
      <trkpt lat="42.97423" lon="0.29658">
        <ele>1827</ele>
        <time>2021-12-07T10:47:33Z</time>
      </trkpt>
      <trkpt lat="42.9742" lon="0.29662">
        <ele>1825</ele>
        <time>2021-12-07T10:47:35Z</time>
      </trkpt>
      <trkpt lat="42.97413" lon="0.29664">
        <ele>1823</ele>
        <time>2021-12-07T10:47:38Z</time>
      </trkpt>
      <trkpt lat="42.97408" lon="0.29663">
        <ele>1822</ele>
        <time>2021-12-07T10:47:41Z</time>
      </trkpt>
      <trkpt lat="42.97406" lon="0.2967">
        <ele>1819</ele>
        <time>2021-12-07T10:47:44Z</time>
      </trkpt>
      <trkpt lat="42.97397" lon="0.29674">
        <ele>1816</ele>
        <time>2021-12-07T10:47:47Z</time>
      </trkpt>
      <trkpt lat="42.97394" lon="0.29673">
        <ele>1816</ele>
        <time>2021-12-07T10:47:48Z</time>
      </trkpt>
      <trkpt lat="42.97392" lon="0.29672">
        <ele>1816</ele>
        <time>2021-12-07T10:47:49Z</time>
      </trkpt>
      <trkpt lat="42.97387" lon="0.29682">
        <ele>1811</ele>
        <time>2021-12-07T10:47:52Z</time>
      </trkpt>
      <trkpt lat="42.97381" lon="0.2969">
        <ele>1807</ele>
        <time>2021-12-07T10:47:54Z</time>
      </trkpt>
      <trkpt lat="42.97376" lon="0.29691">
        <ele>1806</ele>
        <time>2021-12-07T10:47:55Z</time>
      </trkpt>
      <trkpt lat="42.97363" lon="0.2969">
        <ele>1805</ele>
        <time>2021-12-07T10:47:59Z</time>
      </trkpt>
      <trkpt lat="42.9736" lon="0.2969">
        <ele>1804</ele>
        <time>2021-12-07T10:48:00Z</time>
      </trkpt>
      <trkpt lat="42.97357" lon="0.29691">
        <ele>1804</ele>
        <time>2021-12-07T10:48:01Z</time>
      </trkpt>
      <trkpt lat="42.97346" lon="0.2969">
        <ele>1803</ele>
        <time>2021-12-07T10:48:04Z</time>
      </trkpt>
      <trkpt lat="42.97344" lon="0.29691">
        <ele>1802</ele>
        <time>2021-12-07T10:48:05Z</time>
      </trkpt>
      <trkpt lat="42.9734" lon="0.29694">
        <ele>1801</ele>
        <time>2021-12-07T10:48:09Z</time>
      </trkpt>
      <trkpt lat="42.9734" lon="0.29694">
        <ele>1801</ele>
        <time>2021-12-07T10:48:26Z</time>
      </trkpt>
      <trkpt lat="42.97341" lon="0.29694">
        <ele>1801</ele>
        <time>2021-12-07T10:48:39Z</time>
      </trkpt>
      <trkpt lat="42.9734" lon="0.29696">
        <ele>1800</ele>
        <time>2021-12-07T10:49:03Z</time>
      </trkpt>
      <trkpt lat="42.9734" lon="0.29695">
        <ele>1800</ele>
        <time>2021-12-07T10:49:18Z</time>
      </trkpt>
      <trkpt lat="42.97336" lon="0.29703">
        <ele>1797</ele>
        <time>2021-12-07T10:49:22Z</time>
      </trkpt>
      <trkpt lat="42.97343" lon="0.29714">
        <ele>1794</ele>
        <time>2021-12-07T10:49:28Z</time>
      </trkpt>
      <trkpt lat="42.97342" lon="0.29728">
        <ele>1789</ele>
        <time>2021-12-07T10:49:32Z</time>
      </trkpt>
      <trkpt lat="42.97339" lon="0.29736">
        <ele>1785</ele>
        <time>2021-12-07T10:49:35Z</time>
      </trkpt>
      <trkpt lat="42.97338" lon="0.29738">
        <ele>1785</ele>
        <time>2021-12-07T10:49:36Z</time>
      </trkpt>
      <trkpt lat="42.97338" lon="0.29745">
        <ele>1782</ele>
        <time>2021-12-07T10:49:38Z</time>
      </trkpt>
      <trkpt lat="42.97332" lon="0.29755">
        <ele>1777</ele>
        <time>2021-12-07T10:49:41Z</time>
      </trkpt>
      <trkpt lat="42.97332" lon="0.2976">
        <ele>1775</ele>
        <time>2021-12-07T10:49:43Z</time>
      </trkpt>
      <trkpt lat="42.97331" lon="0.29769">
        <ele>1771</ele>
        <time>2021-12-07T10:49:46Z</time>
      </trkpt>
      <trkpt lat="42.97333" lon="0.2978">
        <ele>1767</ele>
        <time>2021-12-07T10:49:49Z</time>
      </trkpt>
      <trkpt lat="42.97333" lon="0.29787">
        <ele>1764</ele>
        <time>2021-12-07T10:49:51Z</time>
      </trkpt>
      <trkpt lat="42.97331" lon="0.29797">
        <ele>1759</ele>
        <time>2021-12-07T10:49:54Z</time>
      </trkpt>
      <trkpt lat="42.97332" lon="0.29805">
        <ele>1757</ele>
        <time>2021-12-07T10:49:57Z</time>
      </trkpt>
      <trkpt lat="42.97321" lon="0.29809">
        <ele>1750</ele>
        <time>2021-12-07T10:50:01Z</time>
      </trkpt>
      <trkpt lat="42.97318" lon="0.29816">
        <ele>1745</ele>
        <time>2021-12-07T10:50:04Z</time>
      </trkpt>
      <trkpt lat="42.97313" lon="0.29824">
        <ele>1739</ele>
        <time>2021-12-07T10:50:08Z</time>
      </trkpt>
      <trkpt lat="42.97313" lon="0.29827">
        <ele>1738</ele>
        <time>2021-12-07T10:50:09Z</time>
      </trkpt>
      <trkpt lat="42.97314" lon="0.29821">
        <ele>1741</ele>
        <time>2021-12-07T10:50:23Z</time>
      </trkpt>
      <trkpt lat="42.97316" lon="0.29817">
        <ele>1744</ele>
        <time>2021-12-07T10:50:44Z</time>
      </trkpt>
      <trkpt lat="42.97318" lon="0.29819">
        <ele>1743</ele>
        <time>2021-12-07T10:50:51Z</time>
      </trkpt>
      <trkpt lat="42.97319" lon="0.29836">
        <ele>1737</ele>
        <time>2021-12-07T10:50:57Z</time>
      </trkpt>
      <trkpt lat="42.97318" lon="0.29846">
        <ele>1732</ele>
        <time>2021-12-07T10:51:00Z</time>
      </trkpt>
      <trkpt lat="42.97316" lon="0.29859">
        <ele>1726</ele>
        <time>2021-12-07T10:51:03Z</time>
      </trkpt>
      <trkpt lat="42.97313" lon="0.29862">
        <ele>1723</ele>
        <time>2021-12-07T10:51:04Z</time>
      </trkpt>
      <trkpt lat="42.97307" lon="0.29875">
        <ele>1716</ele>
        <time>2021-12-07T10:51:08Z</time>
      </trkpt>
      <trkpt lat="42.973" lon="0.29877">
        <ele>1713</ele>
        <time>2021-12-07T10:51:10Z</time>
      </trkpt>
      <trkpt lat="42.97297" lon="0.29883">
        <ele>1710</ele>
        <time>2021-12-07T10:51:12Z</time>
      </trkpt>
      <trkpt lat="42.97302" lon="0.29896">
        <ele>1709</ele>
        <time>2021-12-07T10:51:14Z</time>
      </trkpt>
      <trkpt lat="42.97301" lon="0.29908">
        <ele>1706</ele>
        <time>2021-12-07T10:51:16Z</time>
      </trkpt>
      <trkpt lat="42.97294" lon="0.29913">
        <ele>1702</ele>
        <time>2021-12-07T10:51:18Z</time>
      </trkpt>
      <trkpt lat="42.97289" lon="0.29921">
        <ele>1698</ele>
        <time>2021-12-07T10:51:20Z</time>
      </trkpt>
      <trkpt lat="42.97282" lon="0.29929">
        <ele>1693</ele>
        <time>2021-12-07T10:51:23Z</time>
      </trkpt>
      <trkpt lat="42.97276" lon="0.29936">
        <ele>1689</ele>
        <time>2021-12-07T10:51:25Z</time>
      </trkpt>
      <trkpt lat="42.97268" lon="0.2994">
        <ele>1686</ele>
        <time>2021-12-07T10:51:27Z</time>
      </trkpt>
      <trkpt lat="42.97265" lon="0.29952">
        <ele>1683</ele>
        <time>2021-12-07T10:51:29Z</time>
      </trkpt>
      <trkpt lat="42.97266" lon="0.29959">
        <ele>1682</ele>
        <time>2021-12-07T10:51:30Z</time>
      </trkpt>
      <trkpt lat="42.97266" lon="0.29973">
        <ele>1680</ele>
        <time>2021-12-07T10:51:32Z</time>
      </trkpt>
      <trkpt lat="42.97259" lon="0.29995">
        <ele>1674</ele>
        <time>2021-12-07T10:51:36Z</time>
      </trkpt>
      <trkpt lat="42.97254" lon="0.30011">
        <ele>1669</ele>
        <time>2021-12-07T10:51:39Z</time>
      </trkpt>
      <trkpt lat="42.97252" lon="0.3001">
        <ele>1669</ele>
        <time>2021-12-07T10:51:41Z</time>
      </trkpt>
      <trkpt lat="42.97248" lon="0.2999">
        <ele>1670</ele>
        <time>2021-12-07T10:51:57Z</time>
      </trkpt>
      <trkpt lat="42.97245" lon="0.29986">
        <ele>1671</ele>
        <time>2021-12-07T10:52:19Z</time>
      </trkpt>
      <trkpt lat="42.97246" lon="0.2999">
        <ele>1670</ele>
        <time>2021-12-07T10:52:30Z</time>
      </trkpt>
      <trkpt lat="42.97242" lon="0.29995">
        <ele>1668</ele>
        <time>2021-12-07T10:52:33Z</time>
      </trkpt>
      <trkpt lat="42.97242" lon="0.30007">
        <ele>1665</ele>
        <time>2021-12-07T10:52:36Z</time>
      </trkpt>
      <trkpt lat="42.9723" lon="0.30016">
        <ele>1658</ele>
        <time>2021-12-07T10:52:40Z</time>
      </trkpt>
      <trkpt lat="42.97222" lon="0.30015">
        <ele>1656</ele>
        <time>2021-12-07T10:52:46Z</time>
      </trkpt>
      <trkpt lat="42.97212" lon="0.30027">
        <ele>1650</ele>
        <time>2021-12-07T10:52:52Z</time>
      </trkpt>
      <trkpt lat="42.97213" lon="0.30035">
        <ele>1648</ele>
        <time>2021-12-07T10:52:54Z</time>
      </trkpt>
      <trkpt lat="42.97208" lon="0.30038">
        <ele>1646</ele>
        <time>2021-12-07T10:52:56Z</time>
      </trkpt>
      <trkpt lat="42.97183" lon="0.30043">
        <ele>1641</ele>
        <time>2021-12-07T10:53:03Z</time>
      </trkpt>
      <trkpt lat="42.97177" lon="0.30045">
        <ele>1640</ele>
        <time>2021-12-07T10:53:12Z</time>
      </trkpt>
      <trkpt lat="42.97172" lon="0.30049">
        <ele>1638</ele>
        <time>2021-12-07T10:53:23Z</time>
      </trkpt>
      <trkpt lat="42.97169" lon="0.3005">
        <ele>1637</ele>
        <time>2021-12-07T10:53:41Z</time>
      </trkpt>
      <trkpt lat="42.97169" lon="0.30052">
        <ele>1637</ele>
        <time>2021-12-07T10:53:42Z</time>
      </trkpt>
      <trkpt lat="42.97171" lon="0.30058">
        <ele>1634</ele>
        <time>2021-12-07T10:53:45Z</time>
      </trkpt>
      <trkpt lat="42.97174" lon="0.30063">
        <ele>1632</ele>
        <time>2021-12-07T10:53:48Z</time>
      </trkpt>
      <trkpt lat="42.97174" lon="0.30066">
        <ele>1631</ele>
        <time>2021-12-07T10:53:51Z</time>
      </trkpt>
      <trkpt lat="42.97175" lon="0.30074">
        <ele>1628</ele>
        <time>2021-12-07T10:53:55Z</time>
      </trkpt>
      <trkpt lat="42.97177" lon="0.30083">
        <ele>1624</ele>
        <time>2021-12-07T10:53:59Z</time>
      </trkpt>
      <trkpt lat="42.97177" lon="0.30084">
        <ele>1623</ele>
        <time>2021-12-07T10:54:00Z</time>
      </trkpt>
      <trkpt lat="42.9718" lon="0.30092">
        <ele>1622</ele>
        <time>2021-12-07T10:54:04Z</time>
      </trkpt>
      <trkpt lat="42.97187" lon="0.30104">
        <ele>1619</ele>
        <time>2021-12-07T10:54:09Z</time>
      </trkpt>
      <trkpt lat="42.97187" lon="0.30107">
        <ele>1618</ele>
        <time>2021-12-07T10:54:10Z</time>
      </trkpt>
      <trkpt lat="42.97183" lon="0.30121">
        <ele>1614</ele>
        <time>2021-12-07T10:54:14Z</time>
      </trkpt>
      <trkpt lat="42.97185" lon="0.30129">
        <ele>1613</ele>
        <time>2021-12-07T10:54:16Z</time>
      </trkpt>
      <trkpt lat="42.97183" lon="0.30137">
        <ele>1609</ele>
        <time>2021-12-07T10:54:18Z</time>
      </trkpt>
      <trkpt lat="42.97178" lon="0.30148">
        <ele>1606</ele>
        <time>2021-12-07T10:54:21Z</time>
      </trkpt>
      <trkpt lat="42.97181" lon="0.3016">
        <ele>1607</ele>
        <time>2021-12-07T10:54:24Z</time>
      </trkpt>
      <trkpt lat="42.9718" lon="0.30167">
        <ele>1606</ele>
        <time>2021-12-07T10:54:26Z</time>
      </trkpt>
      <trkpt lat="42.9717" lon="0.30167">
        <ele>1600</ele>
        <time>2021-12-07T10:54:30Z</time>
      </trkpt>
      <trkpt lat="42.97166" lon="0.30167">
        <ele>1597</ele>
        <time>2021-12-07T10:54:35Z</time>
      </trkpt>
      <trkpt lat="42.97162" lon="0.30174">
        <ele>1595</ele>
        <time>2021-12-07T10:54:38Z</time>
      </trkpt>
      <trkpt lat="42.97161" lon="0.3018">
        <ele>1594</ele>
        <time>2021-12-07T10:54:39Z</time>
      </trkpt>
      <trkpt lat="42.97158" lon="0.30188">
        <ele>1591</ele>
        <time>2021-12-07T10:54:41Z</time>
      </trkpt>
      <trkpt lat="42.97159" lon="0.30212">
        <ele>1591</ele>
        <time>2021-12-07T10:54:48Z</time>
      </trkpt>
      <trkpt lat="42.97154" lon="0.30221">
        <ele>1587</ele>
        <time>2021-12-07T10:54:51Z</time>
      </trkpt>
      <trkpt lat="42.97151" lon="0.30222">
        <ele>1584</ele>
        <time>2021-12-07T10:54:52Z</time>
      </trkpt>
      <trkpt lat="42.9714" lon="0.30228">
        <ele>1575</ele>
        <time>2021-12-07T10:54:55Z</time>
      </trkpt>
      <trkpt lat="42.97134" lon="0.30234">
        <ele>1570</ele>
        <time>2021-12-07T10:54:57Z</time>
      </trkpt>
      <trkpt lat="42.97124" lon="0.3024">
        <ele>1563</ele>
        <time>2021-12-07T10:55:00Z</time>
      </trkpt>
      <trkpt lat="42.97115" lon="0.30243">
        <ele>1558</ele>
        <time>2021-12-07T10:55:02Z</time>
      </trkpt>
      <trkpt lat="42.97108" lon="0.30246">
        <ele>1553</ele>
        <time>2021-12-07T10:55:04Z</time>
      </trkpt>
      <trkpt lat="42.97108" lon="0.30255">
        <ele>1553</ele>
        <time>2021-12-07T10:55:06Z</time>
      </trkpt>
      <trkpt lat="42.97103" lon="0.30265">
        <ele>1550</ele>
        <time>2021-12-07T10:55:10Z</time>
      </trkpt>
      <trkpt lat="42.97103" lon="0.30276">
        <ele>1550</ele>
        <time>2021-12-07T10:55:12Z</time>
      </trkpt>
      <trkpt lat="42.97104" lon="0.30281">
        <ele>1550</ele>
        <time>2021-12-07T10:55:20Z</time>
      </trkpt>
      <trkpt lat="42.9711" lon="0.30276">
        <ele>1554</ele>
        <time>2021-12-07T10:55:33Z</time>
      </trkpt>
      <trkpt lat="42.9711" lon="0.30279">
        <ele>1553</ele>
        <time>2021-12-07T10:55:51Z</time>
      </trkpt>
      <trkpt lat="42.97111" lon="0.30289">
        <ele>1552</ele>
        <time>2021-12-07T10:56:09Z</time>
      </trkpt>
      <trkpt lat="42.97112" lon="0.30291">
        <ele>1552</ele>
        <time>2021-12-07T10:56:12Z</time>
      </trkpt>
      <trkpt lat="42.9711" lon="0.30313">
        <ele>1547</ele>
        <time>2021-12-07T10:56:20Z</time>
      </trkpt>
      <trkpt lat="42.97102" lon="0.30316">
        <ele>1543</ele>
        <time>2021-12-07T10:56:23Z</time>
      </trkpt>
      <trkpt lat="42.97096" lon="0.30325">
        <ele>1539</ele>
        <time>2021-12-07T10:56:26Z</time>
      </trkpt>
      <trkpt lat="42.97095" lon="0.30328">
        <ele>1537</ele>
        <time>2021-12-07T10:56:27Z</time>
      </trkpt>
      <trkpt lat="42.97086" lon="0.30346">
        <ele>1530</ele>
        <time>2021-12-07T10:56:31Z</time>
      </trkpt>
      <trkpt lat="42.97076" lon="0.30353">
        <ele>1525</ele>
        <time>2021-12-07T10:56:34Z</time>
      </trkpt>
      <trkpt lat="42.97069" lon="0.30364">
        <ele>1520</ele>
        <time>2021-12-07T10:56:37Z</time>
      </trkpt>
      <trkpt lat="42.97065" lon="0.30367">
        <ele>1519</ele>
        <time>2021-12-07T10:56:38Z</time>
      </trkpt>
      <trkpt lat="42.97065" lon="0.30381">
        <ele>1517</ele>
        <time>2021-12-07T10:56:41Z</time>
      </trkpt>
      <trkpt lat="42.97054" lon="0.30394">
        <ele>1509</ele>
        <time>2021-12-07T10:56:45Z</time>
      </trkpt>
      <trkpt lat="42.97053" lon="0.30402">
        <ele>1507</ele>
        <time>2021-12-07T10:56:47Z</time>
      </trkpt>
      <trkpt lat="42.97047" lon="0.30418">
        <ele>1502</ele>
        <time>2021-12-07T10:56:52Z</time>
      </trkpt>
      <trkpt lat="42.97045" lon="0.30425">
        <ele>1501</ele>
        <time>2021-12-07T10:56:54Z</time>
      </trkpt>
      <trkpt lat="42.97039" lon="0.30433">
        <ele>1496</ele>
        <time>2021-12-07T10:56:57Z</time>
      </trkpt>
      <trkpt lat="42.97032" lon="0.30432">
        <ele>1492</ele>
        <time>2021-12-07T10:57:04Z</time>
      </trkpt>
      <trkpt lat="42.97027" lon="0.30433">
        <ele>1489</ele>
        <time>2021-12-07T10:57:11Z</time>
      </trkpt>
      <trkpt lat="42.97019" lon="0.30431">
        <ele>1487</ele>
        <time>2021-12-07T10:57:16Z</time>
      </trkpt>
      <trkpt lat="42.97017" lon="0.30432">
        <ele>1486</ele>
        <time>2021-12-07T10:57:18Z</time>
      </trkpt>
      <trkpt lat="42.9702" lon="0.30438">
        <ele>1486</ele>
        <time>2021-12-07T10:57:21Z</time>
      </trkpt>
      <trkpt lat="42.97019" lon="0.30442">
        <ele>1485</ele>
        <time>2021-12-07T10:57:23Z</time>
      </trkpt>
      <trkpt lat="42.97017" lon="0.30446">
        <ele>1484</ele>
        <time>2021-12-07T10:57:25Z</time>
      </trkpt>
      <trkpt lat="42.97016" lon="0.30449">
        <ele>1484</ele>
        <time>2021-12-07T10:57:27Z</time>
      </trkpt>
      <trkpt lat="42.97016" lon="0.30454">
        <ele>1484</ele>
        <time>2021-12-07T10:57:29Z</time>
      </trkpt>
      <trkpt lat="42.97019" lon="0.30461">
        <ele>1485</ele>
        <time>2021-12-07T10:57:31Z</time>
      </trkpt>
      <trkpt lat="42.9702" lon="0.30477">
        <ele>1487</ele>
        <time>2021-12-07T10:57:40Z</time>
      </trkpt>
      <trkpt lat="42.9702" lon="0.30478">
        <ele>1487</ele>
        <time>2021-12-07T10:57:42Z</time>
      </trkpt>
      <trkpt lat="42.97014" lon="0.30482">
        <ele>1485</ele>
        <time>2021-12-07T10:57:46Z</time>
      </trkpt>
      <trkpt lat="42.96999" lon="0.30482">
        <ele>1479</ele>
        <time>2021-12-07T10:57:52Z</time>
      </trkpt>
      <trkpt lat="42.96993" lon="0.30482">
        <ele>1477</ele>
        <time>2021-12-07T10:57:54Z</time>
      </trkpt>
      <trkpt lat="42.96988" lon="0.30482">
        <ele>1474</ele>
        <time>2021-12-07T10:57:57Z</time>
      </trkpt>
      <trkpt lat="42.96982" lon="0.30489">
        <ele>1473</ele>
        <time>2021-12-07T10:58:04Z</time>
      </trkpt>
      <trkpt lat="42.96981" lon="0.3049">
        <ele>1473</ele>
        <time>2021-12-07T10:58:05Z</time>
      </trkpt>
      <trkpt lat="42.96971" lon="0.30496">
        <ele>1469</ele>
        <time>2021-12-07T10:58:11Z</time>
      </trkpt>
      <trkpt lat="42.96957" lon="0.30492">
        <ele>1464</ele>
        <time>2021-12-07T10:58:15Z</time>
      </trkpt>
      <trkpt lat="42.96946" lon="0.3049">
        <ele>1461</ele>
        <time>2021-12-07T10:58:18Z</time>
      </trkpt>
      <trkpt lat="42.96923" lon="0.30488">
        <ele>1455</ele>
        <time>2021-12-07T10:58:25Z</time>
      </trkpt>
      <trkpt lat="42.96914" lon="0.30491">
        <ele>1452</ele>
        <time>2021-12-07T10:58:29Z</time>
      </trkpt>
      <trkpt lat="42.96905" lon="0.30483">
        <ele>1451</ele>
        <time>2021-12-07T10:58:33Z</time>
      </trkpt>
      <trkpt lat="42.96895" lon="0.30483">
        <ele>1448</ele>
        <time>2021-12-07T10:58:39Z</time>
      </trkpt>
      <trkpt lat="42.9689" lon="0.30491">
        <ele>1447</ele>
        <time>2021-12-07T10:58:42Z</time>
      </trkpt>
      <trkpt lat="42.96889" lon="0.305">
        <ele>1447</ele>
        <time>2021-12-07T10:58:44Z</time>
      </trkpt>
      <trkpt lat="42.96887" lon="0.30499">
        <ele>1446</ele>
        <time>2021-12-07T10:58:52Z</time>
      </trkpt>
      <trkpt lat="42.96884" lon="0.30503">
        <ele>1446</ele>
        <time>2021-12-07T10:58:58Z</time>
      </trkpt>
      <trkpt lat="42.96873" lon="0.30508">
        <ele>1445</ele>
        <time>2021-12-07T10:59:02Z</time>
      </trkpt>
      <trkpt lat="42.96867" lon="0.30511">
        <ele>1443</ele>
        <time>2021-12-07T10:59:04Z</time>
      </trkpt>
      <trkpt lat="42.96859" lon="0.30515">
        <ele>1442</ele>
        <time>2021-12-07T10:59:06Z</time>
      </trkpt>
      <trkpt lat="42.96839" lon="0.30522">
        <ele>1440</ele>
        <time>2021-12-07T10:59:10Z</time>
      </trkpt>
      <trkpt lat="42.96835" lon="0.30525">
        <ele>1439</ele>
        <time>2021-12-07T10:59:11Z</time>
      </trkpt>
      <trkpt lat="42.96822" lon="0.30529">
        <ele>1437</ele>
        <time>2021-12-07T10:59:14Z</time>
      </trkpt>
      <trkpt lat="42.96802" lon="0.30533">
        <ele>1435</ele>
        <time>2021-12-07T10:59:18Z</time>
      </trkpt>
      <trkpt lat="42.9678" lon="0.30539">
        <ele>1434</ele>
        <time>2021-12-07T10:59:22Z</time>
      </trkpt>
      <trkpt lat="42.96763" lon="0.30535">
        <ele>1432</ele>
        <time>2021-12-07T10:59:25Z</time>
      </trkpt>
      <trkpt lat="42.96739" lon="0.30497">
        <ele>1426</ele>
        <time>2021-12-07T10:59:31Z</time>
      </trkpt>
      <trkpt lat="42.96708" lon="0.30472">
        <ele>1422</ele>
        <time>2021-12-07T10:59:38Z</time>
      </trkpt>
      <trkpt lat="42.96684" lon="0.30451">
        <ele>1421</ele>
        <time>2021-12-07T10:59:48Z</time>
      </trkpt>
      <trkpt lat="42.96682" lon="0.30449">
        <ele>1420</ele>
        <time>2021-12-07T10:59:49Z</time>
      </trkpt>
      <trkpt lat="42.96679" lon="0.30446">
        <ele>1420</ele>
        <time>2021-12-07T10:59:50Z</time>
      </trkpt>
      <trkpt lat="42.96656" lon="0.30426">
        <ele>1418</ele>
        <time>2021-12-07T10:59:57Z</time>
      </trkpt>
      <trkpt lat="42.96626" lon="0.30405">
        <ele>1413</ele>
        <time>2021-12-07T11:00:06Z</time>
      </trkpt>
      <trkpt lat="42.96622" lon="0.30403">
        <ele>1413</ele>
        <time>2021-12-07T11:00:07Z</time>
      </trkpt>
      <trkpt lat="42.96577" lon="0.30388">
        <ele>1410</ele>
        <time>2021-12-07T11:00:17Z</time>
      </trkpt>
      <trkpt lat="42.9655" lon="0.30379">
        <ele>1408</ele>
        <time>2021-12-07T11:00:22Z</time>
      </trkpt>
      <trkpt lat="42.96533" lon="0.3037">
        <ele>1404</ele>
        <time>2021-12-07T11:00:25Z</time>
      </trkpt>
      <trkpt lat="42.96499" lon="0.30358">
        <ele>1400</ele>
        <time>2021-12-07T11:00:31Z</time>
      </trkpt>
      <trkpt lat="42.96487" lon="0.3035">
        <ele>1397</ele>
        <time>2021-12-07T11:00:34Z</time>
      </trkpt>
      <trkpt lat="42.96474" lon="0.30338">
        <ele>1393</ele>
        <time>2021-12-07T11:00:41Z</time>
      </trkpt>
      <trkpt lat="42.96462" lon="0.30339">
        <ele>1392</ele>
        <time>2021-12-07T11:00:46Z</time>
      </trkpt>
      <trkpt lat="42.9646" lon="0.30341">
        <ele>1392</ele>
        <time>2021-12-07T11:00:58Z</time>
      </trkpt>
      <trkpt lat="42.96458" lon="0.3034">
        <ele>1392</ele>
        <time>2021-12-07T11:01:23Z</time>
      </trkpt>
      <trkpt lat="42.96462" lon="0.30335">
        <ele>1391</ele>
        <time>2021-12-07T11:01:46Z</time>
      </trkpt>
      <trkpt lat="42.96464" lon="0.30336">
        <ele>1392</ele>
        <time>2021-12-07T11:02:07Z</time>
      </trkpt>
      <trkpt lat="42.96462" lon="0.30338">
        <ele>1392</ele>
        <time>2021-12-07T11:02:32Z</time>
      </trkpt>
      <trkpt lat="42.96464" lon="0.30337">
        <ele>1392</ele>
        <time>2021-12-07T11:02:49Z</time>
      </trkpt>
      <trkpt lat="42.96466" lon="0.30337">
        <ele>1392</ele>
        <time>2021-12-07T11:03:12Z</time>
      </trkpt>
      <trkpt lat="42.96463" lon="0.30336">
        <ele>1392</ele>
        <time>2021-12-07T11:03:26Z</time>
      </trkpt>
      <trkpt lat="42.96464" lon="0.30337">
        <ele>1392</ele>
        <time>2021-12-07T11:03:50Z</time>
      </trkpt>
      <trkpt lat="42.9646" lon="0.30339">
        <ele>1392</ele>
        <time>2021-12-07T11:03:58Z</time>
      </trkpt>
      <trkpt lat="42.96453" lon="0.30337">
        <ele>1391</ele>
        <time>2021-12-07T11:04:02Z</time>
      </trkpt>
      <trkpt lat="42.96423" lon="0.30338">
        <ele>1387</ele>
        <time>2021-12-07T11:04:14Z</time>
      </trkpt>
      <trkpt lat="42.96381" lon="0.30314">
        <ele>1383</ele>
        <time>2021-12-07T11:04:27Z</time>
      </trkpt>
      <trkpt lat="42.96346" lon="0.30298">
        <ele>1380</ele>
        <time>2021-12-07T11:04:36Z</time>
      </trkpt>
      <trkpt lat="42.96307" lon="0.30281">
        <ele>1378</ele>
        <time>2021-12-07T11:04:45Z</time>
      </trkpt>
      <trkpt lat="42.9629" lon="0.30278">
        <ele>1378</ele>
        <time>2021-12-07T11:04:49Z</time>
      </trkpt>
      <trkpt lat="42.96242" lon="0.30289">
        <ele>1378</ele>
        <time>2021-12-07T11:05:02Z</time>
      </trkpt>
      <trkpt lat="42.96238" lon="0.3029">
        <ele>1378</ele>
        <time>2021-12-07T11:05:03Z</time>
      </trkpt>
      <trkpt lat="42.9623" lon="0.3029">
        <ele>1378</ele>
        <time>2021-12-07T11:05:05Z</time>
      </trkpt>
      <trkpt lat="42.96205" lon="0.30286">
        <ele>1375</ele>
        <time>2021-12-07T11:05:10Z</time>
      </trkpt>
      <trkpt lat="42.96187" lon="0.30275">
        <ele>1372</ele>
        <time>2021-12-07T11:05:14Z</time>
      </trkpt>
      <trkpt lat="42.96178" lon="0.30268">
        <ele>1371</ele>
        <time>2021-12-07T11:05:16Z</time>
      </trkpt>
      <trkpt lat="42.96171" lon="0.30259">
        <ele>1370</ele>
        <time>2021-12-07T11:05:18Z</time>
      </trkpt>
      <trkpt lat="42.96161" lon="0.30244">
        <ele>1368</ele>
        <time>2021-12-07T11:05:21Z</time>
      </trkpt>
      <trkpt lat="42.96153" lon="0.30236">
        <ele>1366</ele>
        <time>2021-12-07T11:05:23Z</time>
      </trkpt>
      <trkpt lat="42.96152" lon="0.3023">
        <ele>1366</ele>
        <time>2021-12-07T11:05:30Z</time>
      </trkpt>
      <trkpt lat="42.96153" lon="0.30232">
        <ele>1366</ele>
        <time>2021-12-07T11:05:34Z</time>
      </trkpt>
      <trkpt lat="42.96153" lon="0.30232">
        <ele>1366</ele>
        <time>2021-12-07T11:05:35Z</time>
      </trkpt>
      <trkpt lat="42.96153" lon="0.30232">
        <ele>1366</ele>
        <time>2021-12-07T11:05:38Z</time>
      </trkpt>
      <trkpt lat="42.96151" lon="0.3023">
        <ele>1365</ele>
        <time>2021-12-07T11:05:50Z</time>
      </trkpt>
      <trkpt lat="42.96148" lon="0.30226">
        <ele>1364</ele>
        <time>2021-12-07T11:06:02Z</time>
      </trkpt>
      <trkpt lat="42.96137" lon="0.30206">
        <ele>1360</ele>
        <time>2021-12-07T11:06:10Z</time>
      </trkpt>
      <trkpt lat="42.96124" lon="0.30184">
        <ele>1358</ele>
        <time>2021-12-07T11:06:15Z</time>
      </trkpt>
      <trkpt lat="42.96116" lon="0.3017">
        <ele>1355</ele>
        <time>2021-12-07T11:06:18Z</time>
      </trkpt>
      <trkpt lat="42.96102" lon="0.30167">
        <ele>1353</ele>
        <time>2021-12-07T11:06:22Z</time>
      </trkpt>
      <trkpt lat="42.96097" lon="0.30167">
        <ele>1353</ele>
        <time>2021-12-07T11:06:23Z</time>
      </trkpt>
      <trkpt lat="42.9607" lon="0.30153">
        <ele>1350</ele>
        <time>2021-12-07T11:06:29Z</time>
      </trkpt>
      <trkpt lat="42.96053" lon="0.30138">
        <ele>1345</ele>
        <time>2021-12-07T11:06:34Z</time>
      </trkpt>
      <trkpt lat="42.96039" lon="0.30122">
        <ele>1340</ele>
        <time>2021-12-07T11:06:37Z</time>
      </trkpt>
      <trkpt lat="42.96026" lon="0.30104">
        <ele>1335</ele>
        <time>2021-12-07T11:06:40Z</time>
      </trkpt>
      <trkpt lat="42.96022" lon="0.30099">
        <ele>1334</ele>
        <time>2021-12-07T11:06:41Z</time>
      </trkpt>
      <trkpt lat="42.96015" lon="0.3009">
        <ele>1333</ele>
        <time>2021-12-07T11:06:43Z</time>
      </trkpt>
      <trkpt lat="42.95997" lon="0.30067">
        <ele>1327</ele>
        <time>2021-12-07T11:06:48Z</time>
      </trkpt>
      <trkpt lat="42.95994" lon="0.30061">
        <ele>1326</ele>
        <time>2021-12-07T11:06:49Z</time>
      </trkpt>
      <trkpt lat="42.95978" lon="0.30041">
        <ele>1322</ele>
        <time>2021-12-07T11:06:53Z</time>
      </trkpt>
      <trkpt lat="42.95965" lon="0.30026">
        <ele>1319</ele>
        <time>2021-12-07T11:06:57Z</time>
      </trkpt>
      <trkpt lat="42.9595" lon="0.30011">
        <ele>1317</ele>
        <time>2021-12-07T11:07:01Z</time>
      </trkpt>
      <trkpt lat="42.95947" lon="0.30008">
        <ele>1316</ele>
        <time>2021-12-07T11:07:02Z</time>
      </trkpt>
      <trkpt lat="42.95941" lon="0.30002">
        <ele>1315</ele>
        <time>2021-12-07T11:07:04Z</time>
      </trkpt>
      <trkpt lat="42.95926" lon="0.2999">
        <ele>1313</ele>
        <time>2021-12-07T11:07:09Z</time>
      </trkpt>
      <trkpt lat="42.95915" lon="0.29981">
        <ele>1311</ele>
        <time>2021-12-07T11:07:13Z</time>
      </trkpt>
      <trkpt lat="42.95902" lon="0.29967">
        <ele>1306</ele>
        <time>2021-12-07T11:07:18Z</time>
      </trkpt>
      <trkpt lat="42.95895" lon="0.29962">
        <ele>1304</ele>
        <time>2021-12-07T11:07:20Z</time>
      </trkpt>
      <trkpt lat="42.95888" lon="0.29958">
        <ele>1303</ele>
        <time>2021-12-07T11:07:22Z</time>
      </trkpt>
      <trkpt lat="42.95868" lon="0.29946">
        <ele>1298</ele>
        <time>2021-12-07T11:07:27Z</time>
      </trkpt>
      <trkpt lat="42.95849" lon="0.29934">
        <ele>1295</ele>
        <time>2021-12-07T11:07:31Z</time>
      </trkpt>
      <trkpt lat="42.95828" lon="0.2992">
        <ele>1292</ele>
        <time>2021-12-07T11:07:35Z</time>
      </trkpt>
      <trkpt lat="42.95824" lon="0.29915">
        <ele>1291</ele>
        <time>2021-12-07T11:07:36Z</time>
      </trkpt>
      <trkpt lat="42.95802" lon="0.29905">
        <ele>1287</ele>
        <time>2021-12-07T11:07:41Z</time>
      </trkpt>
      <trkpt lat="42.95787" lon="0.29902">
        <ele>1285</ele>
        <time>2021-12-07T11:07:47Z</time>
      </trkpt>
      <trkpt lat="42.95771" lon="0.29892">
        <ele>1281</ele>
        <time>2021-12-07T11:07:54Z</time>
      </trkpt>
      <trkpt lat="42.95765" lon="0.29886">
        <ele>1279</ele>
        <time>2021-12-07T11:07:57Z</time>
      </trkpt>
      <trkpt lat="42.95749" lon="0.29883">
        <ele>1277</ele>
        <time>2021-12-07T11:08:00Z</time>
      </trkpt>
      <trkpt lat="42.95723" lon="0.29878">
        <ele>1278</ele>
        <time>2021-12-07T11:08:04Z</time>
      </trkpt>
      <trkpt lat="42.95696" lon="0.29873">
        <ele>1277</ele>
        <time>2021-12-07T11:08:09Z</time>
      </trkpt>
      <trkpt lat="42.95674" lon="0.29876">
        <ele>1279</ele>
        <time>2021-12-07T11:08:12Z</time>
      </trkpt>
      <trkpt lat="42.95662" lon="0.29873">
        <ele>1279</ele>
        <time>2021-12-07T11:08:16Z</time>
      </trkpt>
      <trkpt lat="42.95645" lon="0.29866">
        <ele>1275</ele>
        <time>2021-12-07T11:08:21Z</time>
      </trkpt>
      <trkpt lat="42.95638" lon="0.29864">
        <ele>1274</ele>
        <time>2021-12-07T11:08:23Z</time>
      </trkpt>
      <trkpt lat="42.95625" lon="0.29858">
        <ele>1272</ele>
        <time>2021-12-07T11:08:27Z</time>
      </trkpt>
      <trkpt lat="42.95619" lon="0.29856">
        <ele>1271</ele>
        <time>2021-12-07T11:08:29Z</time>
      </trkpt>
      <trkpt lat="42.95598" lon="0.29851">
        <ele>1269</ele>
        <time>2021-12-07T11:08:45Z</time>
      </trkpt>
      <trkpt lat="42.95592" lon="0.29833">
        <ele>1265</ele>
        <time>2021-12-07T11:09:02Z</time>
      </trkpt>
      <trkpt lat="42.95585" lon="0.29811">
        <ele>1259</ele>
        <time>2021-12-07T11:09:29Z</time>
      </trkpt>
      <trkpt lat="42.95585" lon="0.29813">
        <ele>1260</ele>
        <time>2021-12-07T11:09:53Z</time>
      </trkpt>
      <trkpt lat="42.95581" lon="0.29818">
        <ele>1261</ele>
        <time>2021-12-07T11:10:16Z</time>
      </trkpt>
      <trkpt lat="42.95581" lon="0.29818">
        <ele>1261</ele>
        <time>2021-12-07T11:10:18Z</time>
      </trkpt>
      <trkpt lat="42.95574" lon="0.29816">
        <ele>1261</ele>
        <time>2021-12-07T11:10:26Z</time>
      </trkpt>
      <trkpt lat="42.95573" lon="0.29816">
        <ele>1261</ele>
        <time>2021-12-07T11:10:27Z</time>
      </trkpt>
      <trkpt lat="42.95571" lon="0.29816">
        <ele>1261</ele>
        <time>2021-12-07T11:10:28Z</time>
      </trkpt>
      <trkpt lat="42.95563" lon="0.29817">
        <ele>1261</ele>
        <time>2021-12-07T11:10:34Z</time>
      </trkpt>
      <trkpt lat="42.95559" lon="0.29818">
        <ele>1262</ele>
        <time>2021-12-07T11:10:35Z</time>
      </trkpt>
      <trkpt lat="42.95546" lon="0.29815">
        <ele>1260</ele>
        <time>2021-12-07T11:10:39Z</time>
      </trkpt>
      <trkpt lat="42.95528" lon="0.29823">
        <ele>1260</ele>
        <time>2021-12-07T11:10:43Z</time>
      </trkpt>
      <trkpt lat="42.95505" lon="0.29847">
        <ele>1259</ele>
        <time>2021-12-07T11:10:49Z</time>
      </trkpt>
      <trkpt lat="42.9547" lon="0.29875">
        <ele>1252</ele>
        <time>2021-12-07T11:10:57Z</time>
      </trkpt>
      <trkpt lat="42.95452" lon="0.29879">
        <ele>1253</ele>
        <time>2021-12-07T11:11:05Z</time>
      </trkpt>
      <trkpt lat="42.95459" lon="0.29824">
        <ele>1246</ele>
        <time>2021-12-07T11:11:18Z</time>
      </trkpt>
      <trkpt lat="42.95466" lon="0.29801">
        <ele>1241</ele>
        <time>2021-12-07T11:11:22Z</time>
      </trkpt>
      <trkpt lat="42.95472" lon="0.29783">
        <ele>1236</ele>
        <time>2021-12-07T11:11:25Z</time>
      </trkpt>
      <trkpt lat="42.95477" lon="0.29768">
        <ele>1234</ele>
        <time>2021-12-07T11:11:27Z</time>
      </trkpt>
      <trkpt lat="42.95485" lon="0.29736">
        <ele>1228</ele>
        <time>2021-12-07T11:11:31Z</time>
      </trkpt>
      <trkpt lat="42.95484" lon="0.29723">
        <ele>1226</ele>
        <time>2021-12-07T11:11:33Z</time>
      </trkpt>
      <trkpt lat="42.95487" lon="0.29697">
        <ele>1222</ele>
        <time>2021-12-07T11:11:38Z</time>
      </trkpt>
      <trkpt lat="42.95489" lon="0.29693">
        <ele>1221</ele>
        <time>2021-12-07T11:11:39Z</time>
      </trkpt>
      <trkpt lat="42.95485" lon="0.29684">
        <ele>1221</ele>
        <time>2021-12-07T11:11:41Z</time>
      </trkpt>
      <trkpt lat="42.95479" lon="0.29639">
        <ele>1218</ele>
        <time>2021-12-07T11:11:48Z</time>
      </trkpt>
      <trkpt lat="42.95476" lon="0.2962">
        <ele>1216</ele>
        <time>2021-12-07T11:11:51Z</time>
      </trkpt>
      <trkpt lat="42.95474" lon="0.29609">
        <ele>1215</ele>
        <time>2021-12-07T11:11:53Z</time>
      </trkpt>
      <trkpt lat="42.95465" lon="0.29565">
        <ele>1212</ele>
        <time>2021-12-07T11:12:06Z</time>
      </trkpt>
      <trkpt lat="42.95454" lon="0.29553">
        <ele>1213</ele>
        <time>2021-12-07T11:12:15Z</time>
      </trkpt>
      <trkpt lat="42.9544" lon="0.29539">
        <ele>1213</ele>
        <time>2021-12-07T11:12:21Z</time>
      </trkpt>
      <trkpt lat="42.95433" lon="0.29527">
        <ele>1212</ele>
        <time>2021-12-07T11:12:23Z</time>
      </trkpt>
      <trkpt lat="42.95423" lon="0.2951">
        <ele>1209</ele>
        <time>2021-12-07T11:12:26Z</time>
      </trkpt>
      <trkpt lat="42.95416" lon="0.29502">
        <ele>1207</ele>
        <time>2021-12-07T11:12:28Z</time>
      </trkpt>
      <trkpt lat="42.95404" lon="0.29491">
        <ele>1203</ele>
        <time>2021-12-07T11:12:32Z</time>
      </trkpt>
      <trkpt lat="42.95386" lon="0.29497">
        <ele>1204</ele>
        <time>2021-12-07T11:12:38Z</time>
      </trkpt>
      <trkpt lat="42.9537" lon="0.29505">
        <ele>1203</ele>
        <time>2021-12-07T11:12:41Z</time>
      </trkpt>
      <trkpt lat="42.95359" lon="0.29511">
        <ele>1203</ele>
        <time>2021-12-07T11:12:44Z</time>
      </trkpt>
      <trkpt lat="42.95356" lon="0.29514">
        <ele>1203</ele>
        <time>2021-12-07T11:12:46Z</time>
      </trkpt>
      <trkpt lat="42.95349" lon="0.29526">
        <ele>1205</ele>
        <time>2021-12-07T11:12:50Z</time>
      </trkpt>
      <trkpt lat="42.95309" lon="0.29543">
        <ele>1195</ele>
        <time>2021-12-07T11:12:57Z</time>
      </trkpt>
      <trkpt lat="42.95289" lon="0.2955">
        <ele>1191</ele>
        <time>2021-12-07T11:13:04Z</time>
      </trkpt>
      <trkpt lat="42.95288" lon="0.29551">
        <ele>1191</ele>
        <time>2021-12-07T11:13:05Z</time>
      </trkpt>
      <trkpt lat="42.95272" lon="0.29548">
        <ele>1187</ele>
        <time>2021-12-07T11:13:10Z</time>
      </trkpt>
      <trkpt lat="42.95252" lon="0.29542">
        <ele>1183</ele>
        <time>2021-12-07T11:13:16Z</time>
      </trkpt>
      <trkpt lat="42.95214" lon="0.2952">
        <ele>1175</ele>
        <time>2021-12-07T11:13:27Z</time>
      </trkpt>
      <trkpt lat="42.9519" lon="0.29518">
        <ele>1172</ele>
        <time>2021-12-07T11:13:33Z</time>
      </trkpt>
      <trkpt lat="42.95176" lon="0.29514">
        <ele>1171</ele>
        <time>2021-12-07T11:13:37Z</time>
      </trkpt>
      <trkpt lat="42.95156" lon="0.295">
        <ele>1170</ele>
        <time>2021-12-07T11:13:41Z</time>
      </trkpt>
      <trkpt lat="42.95121" lon="0.29475">
        <ele>1171</ele>
        <time>2021-12-07T11:13:53Z</time>
      </trkpt>
      <trkpt lat="42.95096" lon="0.29448">
        <ele>1171</ele>
        <time>2021-12-07T11:14:04Z</time>
      </trkpt>
      <trkpt lat="42.95065" lon="0.29426">
        <ele>1169</ele>
        <time>2021-12-07T11:14:14Z</time>
      </trkpt>
      <trkpt lat="42.95028" lon="0.29406">
        <ele>1162</ele>
        <time>2021-12-07T11:14:23Z</time>
      </trkpt>
      <trkpt lat="42.94994" lon="0.29394">
        <ele>1161</ele>
        <time>2021-12-07T11:14:30Z</time>
      </trkpt>
      <trkpt lat="42.94976" lon="0.2938">
        <ele>1159</ele>
        <time>2021-12-07T11:14:34Z</time>
      </trkpt>
      <trkpt lat="42.94968" lon="0.29372">
        <ele>1158</ele>
        <time>2021-12-07T11:14:35Z</time>
      </trkpt>
      <trkpt lat="42.94963" lon="0.29366">
        <ele>1158</ele>
        <time>2021-12-07T11:14:36Z</time>
      </trkpt>
      <trkpt lat="42.94937" lon="0.2934">
        <ele>1153</ele>
        <time>2021-12-07T11:14:41Z</time>
      </trkpt>
      <trkpt lat="42.94916" lon="0.29332">
        <ele>1150</ele>
        <time>2021-12-07T11:14:45Z</time>
      </trkpt>
      <trkpt lat="42.949" lon="0.29328">
        <ele>1151</ele>
        <time>2021-12-07T11:14:48Z</time>
      </trkpt>
      <trkpt lat="42.94889" lon="0.29323">
        <ele>1151</ele>
        <time>2021-12-07T11:14:50Z</time>
      </trkpt>
      <trkpt lat="42.9488" lon="0.29318">
        <ele>1152</ele>
        <time>2021-12-07T11:14:52Z</time>
      </trkpt>
      <trkpt lat="42.94873" lon="0.29311">
        <ele>1151</ele>
        <time>2021-12-07T11:14:54Z</time>
      </trkpt>
      <trkpt lat="42.94857" lon="0.29294">
        <ele>1150</ele>
        <time>2021-12-07T11:14:58Z</time>
      </trkpt>
      <trkpt lat="42.94853" lon="0.29268">
        <ele>1148</ele>
        <time>2021-12-07T11:15:03Z</time>
      </trkpt>
      <trkpt lat="42.9485" lon="0.29201">
        <ele>1144</ele>
        <time>2021-12-07T11:15:16Z</time>
      </trkpt>
      <trkpt lat="42.9485" lon="0.29196">
        <ele>1144</ele>
        <time>2021-12-07T11:15:18Z</time>
      </trkpt>
      <trkpt lat="42.94844" lon="0.29187">
        <ele>1141</ele>
        <time>2021-12-07T11:15:23Z</time>
      </trkpt>
      <trkpt lat="42.94801" lon="0.29124">
        <ele>1135</ele>
        <time>2021-12-07T11:15:34Z</time>
      </trkpt>
      <trkpt lat="42.94791" lon="0.29117">
        <ele>1133</ele>
        <time>2021-12-07T11:15:39Z</time>
      </trkpt>
      <trkpt lat="42.94788" lon="0.29111">
        <ele>1131</ele>
        <time>2021-12-07T11:15:44Z</time>
      </trkpt>
      <trkpt lat="42.94786" lon="0.29106">
        <ele>1131</ele>
        <time>2021-12-07T11:15:46Z</time>
      </trkpt>
      <trkpt lat="42.94784" lon="0.29101">
        <ele>1131</ele>
        <time>2021-12-07T11:15:48Z</time>
      </trkpt>
      <trkpt lat="42.94764" lon="0.29087">
        <ele>1131</ele>
        <time>2021-12-07T11:15:52Z</time>
      </trkpt>
      <trkpt lat="42.94744" lon="0.2907">
        <ele>1133</ele>
        <time>2021-12-07T11:15:56Z</time>
      </trkpt>
      <trkpt lat="42.94677" lon="0.29027">
        <ele>1122</ele>
        <time>2021-12-07T11:16:11Z</time>
      </trkpt>
      <trkpt lat="42.9462" lon="0.28992">
        <ele>1123</ele>
        <time>2021-12-07T11:16:24Z</time>
      </trkpt>
      <trkpt lat="42.94583" lon="0.28955">
        <ele>1119</ele>
        <time>2021-12-07T11:16:36Z</time>
      </trkpt>
      <trkpt lat="42.9457" lon="0.28943">
        <ele>1117</ele>
        <time>2021-12-07T11:16:39Z</time>
      </trkpt>
      <trkpt lat="42.94558" lon="0.28925">
        <ele>1114</ele>
        <time>2021-12-07T11:16:42Z</time>
      </trkpt>
      <trkpt lat="42.94524" lon="0.28873">
        <ele>1111</ele>
        <time>2021-12-07T11:16:54Z</time>
      </trkpt>
      <trkpt lat="42.94514" lon="0.28852">
        <ele>1110</ele>
        <time>2021-12-07T11:17:07Z</time>
      </trkpt>
      <trkpt lat="42.94515" lon="0.28846">
        <ele>1110</ele>
        <time>2021-12-07T11:17:24Z</time>
      </trkpt>
      <trkpt lat="42.94516" lon="0.28836">
        <ele>1110</ele>
        <time>2021-12-07T11:17:40Z</time>
      </trkpt>
      <trkpt lat="42.94506" lon="0.28834">
        <ele>1110</ele>
        <time>2021-12-07T11:17:58Z</time>
      </trkpt>
      <trkpt lat="42.94499" lon="0.28831">
        <ele>1110</ele>
        <time>2021-12-07T11:18:08Z</time>
      </trkpt>
      <trkpt lat="42.94491" lon="0.28826">
        <ele>1110</ele>
        <time>2021-12-07T11:18:17Z</time>
      </trkpt>
      <trkpt lat="42.9448" lon="0.28821">
        <ele>1110</ele>
        <time>2021-12-07T11:18:26Z</time>
      </trkpt>
      <trkpt lat="42.94465" lon="0.28831">
        <ele>1110</ele>
        <time>2021-12-07T11:18:40Z</time>
      </trkpt>
      <trkpt lat="42.94467" lon="0.28826">
        <ele>1110</ele>
        <time>2021-12-07T11:18:54Z</time>
      </trkpt>
      <trkpt lat="42.94464" lon="0.28829">
        <ele>1110</ele>
        <time>2021-12-07T11:19:03Z</time>
      </trkpt>
      <trkpt lat="42.94462" lon="0.28824">
        <ele>1110</ele>
        <time>2021-12-07T11:19:32Z</time>
      </trkpt>
      <trkpt lat="42.94465" lon="0.28826">
        <ele>1110</ele>
        <time>2021-12-07T11:19:45Z</time>
      </trkpt>
      <trkpt lat="42.94465" lon="0.28824">
        <ele>1110</ele>
        <time>2021-12-07T11:20:12Z</time>
      </trkpt>
      <trkpt lat="42.9447" lon="0.28821">
        <ele>1110</ele>
        <time>2021-12-07T11:20:34Z</time>
      </trkpt>
    </trkseg>
  </trk>
</gpx>